Dados Meteorológicos "Online"
 
  Base de Dados  
 
Dinamização da Estação Meteorológica (na escola)
 
Dados relativos aos últimos 2 meses:
Data/HoraTemperaturaHumi. Rela.PressãoPrecipitaçãoVel.VentoDir.VentoVel.RajadaDir.RajadaRadiação SolarÍndice U.V.
(ºC)(%)(hPa)(mm)(km/h)(km/h)(W / m2)(0-11)
2017-11-23 22:00:0017,6100,01016,404,6S13,9S00
2017-11-23 21:00:0017,3100,01016,403,3S9,4S00
2017-11-23 20:00:0017,1100,01016,205,4W176,2N00
2017-11-23 19:00:0017,198,51015,80,65,1SW18,1SW00
2017-11-23 18:00:0018,092,51015,13,49,3SW21,6W20
2017-11-23 17:00:0019,879,81014,4015,4SW35,5SW130,0
2017-11-23 16:00:0020,773,91014,2012,3S26,2SW750,1
2017-11-23 15:00:0021,071,41014,3010,4S21,9S1190,5
2017-11-23 14:00:0021,370,21014,7014,2S29,2S1770,9
2017-11-23 13:00:0021,573,51015,1012,2S27,7S2601,4
2017-11-23 12:00:0020,880,51015,4011,8S26,0S3141,4
2017-11-23 11:00:0017,799,61015,5011,2S22,8SE1710,7
2017-11-23 10:00:0016,8100,01015,408,1SE20,2S1170,3
2017-11-23 09:00:0014,4100,01015,204,0E8,5E590,1
2017-11-23 08:00:0013,1100,01014,504,3E10,4E100
2017-11-23 07:00:0013,0100,01014,203,7E9,0E00
2017-11-23 06:00:0012,9100,01013,904,1E8,1E00
2017-11-23 05:00:0012,7100,01013,704,6E8,9NE00
2017-11-23 04:00:0012,3100,01013,703,6E8,7E00
2017-11-23 03:00:0012,3100,01013,403,7NE12,0E00
2017-11-23 02:00:0012,699,81013,203,3NE7,2NE00
2017-11-23 01:00:0013,099,21013,303,0NE5,6NE00
2017-11-23 00:00:0013,698,41013,302,8E6,4E00
2017-11-22 23:00:0014,297,01013,303,3E7,1E00
2017-11-22 22:00:0014,796,11013,304,0E8,4E00
2017-11-22 21:00:0015,096,41013,204,0E8,0E00
2017-11-22 20:00:0015,196,21013,004,1E8,1E00
2017-11-22 19:00:0015,593,21012,603,7NE7,5E00
2017-11-22 18:00:0017,388,01012,005,9SE11,4SE20
2017-11-22 17:00:0018,684,11011,808,5SE17,4SE220,0
2017-11-22 16:00:0019,380,01011,9010,6SE19,8SE430,2
2017-11-22 15:00:0020,575,21012,2010,8SE21,3SE2370,8
2017-11-22 14:00:0021,072,91012,8011,6SE23,3SE4311,3
2017-11-22 13:00:0020,374,71013,7011,8SE25,8S3991,4
2017-11-22 12:00:0020,472,91014,7011,4SE25,7SE4261,4
2017-11-22 11:00:0016,991,21015,304,9E16,6SE3310,9
2017-11-22 10:00:0013,899,91015,506,1E11,8E2140,3
2017-11-22 09:00:0012,1100,01015,404,7E11,0E610,0
2017-11-22 08:00:0010,8100,01015,003,1E9,0E220
2017-11-22 07:00:0010,7100,01014,902,7E8,8E00
2017-11-22 06:00:0010,5100,01014,902,5E6,3E00
2017-11-22 05:00:0011,0100,01014,902,5NE9,6E00
2017-11-22 04:00:0011,9100,01015,402,7E6,4SE00
2017-11-22 03:00:0011,7100,01016,002,5E10,2E00
2017-11-22 02:00:0010,9100,01016,402,1E5,9E00
2017-11-22 01:00:0010,4100,01016,700,9N4,0N10
2017-11-22 00:00:0010,299,81016,901,3E4,0E10
2017-11-21 23:00:0010,899,51017,102,7E5,9E00
2017-11-21 22:00:0011,799,01017,202,9E5,0NE00
2017-11-21 21:00:0012,598,31017,202,5NE8,0NE00
2017-11-21 20:00:0013,496,81017,202,7NE8,4E00
2017-11-21 19:00:0014,994,41016,903,7E10,8SE00
2017-11-21 18:00:0016,288,91016,605,2SE11,7E20
2017-11-21 17:00:0017,882,21016,606,6SE13,0SE220,0
2017-11-21 16:00:0018,677,71016,509,3SE17,5SE390,3
2017-11-21 15:00:0020,067,31017,009,6SE18,0S2380,9
2017-11-21 14:00:0020,962,41017,809,5SE20,5S4311,5
2017-11-21 13:00:0020,664,01018,5010,2S18,4S4581,8
2017-11-21 12:00:0020,365,51019,408,0SE18,8SE4461,6
2017-11-21 11:00:0018,071,41020,007,6E21,1SE3801,1
2017-11-21 10:00:0013,295,11020,402,3NE6,4NE2710,4
2017-11-21 09:00:008,9100,01020,30,22,3E6,7SE440,1
2017-11-21 08:00:007,2100,01020,102,8E7,7S110
2017-11-21 07:00:007,1100,01019,802,4E6,2E00
2017-11-21 06:00:007,1100,01019,802,8E7,4E00
2017-11-21 05:00:006,999,91020,003,6E6,4E00
2017-11-21 04:00:007,399,81020,102,9E6,2E00
2017-11-21 03:00:007,399,51020,503,4E5,6E00
2017-11-21 02:00:007,599,31020,403,1E6,4E00,0
2017-11-21 01:00:007,899,01020,403,0E4,8NE00
2017-11-21 00:00:008,498,61020,202,7E4,5NE00
2017-11-20 23:00:009,398,11019,902,7E7,5E00
2017-11-20 22:00:0010,297,41019,802,5E5,5E00
2017-11-20 21:00:0011,496,21019,902,8NE6,3NE00
2017-11-20 20:00:0012,693,91019,603,1NE6,6N00
2017-11-20 19:00:0013,991,41019,103,6E8,6NE-10
2017-11-20 18:00:0015,884,71018,605,4E12,3SE20
2017-11-20 17:00:0017,376,01018,309,0SE18,8SE180,0
2017-11-20 16:00:0018,168,91018,1010,3S21,6S310,3
2017-11-20 15:00:0019,862,81018,1010,5S24,0S2420,9
2017-11-20 14:00:0021,156,21018,60,210,5S22,0SE4501,6
2017-11-20 13:00:0020,959,11019,609,4S19,5S4761,8
2017-11-20 12:00:0020,560,71020,604,7SE13,8SE4501,7
2017-11-20 11:00:0017,163,61021,103,5E9,9NE3851,1
2017-11-20 10:00:0011,585,41021,402,2E8,6E2930,5
2017-11-20 09:00:006,8100,01021,402,2E6,2SE410,1
2017-11-20 08:00:005,5100,01020,902,4E5,3NE110
2017-11-20 07:00:005,8100,01020,102,5E5,1E10
2017-11-19 19:00:0013,294,51017,902,1NW4,5NW00
2017-11-19 18:00:0014,989,01017,601,5SW4,7S30
2017-11-19 17:00:0016,880,01017,404,3S12,1S210,0
2017-11-19 16:00:0018,069,81017,007,8S17,5S350,2
2017-11-19 15:00:0019,855,01016,7010,5S19,6S2440,9
2017-11-19 14:00:0021,250,11017,509,1S22,0SE4491,5
2017-11-19 13:00:0020,657,31018,108,8S15,7S4721,7
2017-11-19 12:00:0020,457,21018,705,6S13,9S4471,6
2017-11-19 11:00:0016,868,21019,203,0SE6,7SE3831,1
2017-11-19 10:00:0010,598,61019,401,7E4,7NE3000,4
2017-11-19 09:00:007,5100,01019,302,3E7,2E470,1
2017-11-19 08:00:006,5100,01018,703,3E6,7E120
2017-11-19 07:00:006,5100,01018,203,4E7,4E10
2017-11-19 06:00:006,7100,01017,903,4E5,3E00
2017-11-19 05:00:007,1100,01017,803,3E5,6NE00
2017-11-19 04:00:007,7100,01017,803,4E8,2NE00
2017-11-19 03:00:008,0100,01017,802,3E4,1E00
2017-11-19 02:00:008,6100,01017,702,0NE7,2N00
2017-11-19 01:00:009,0100,01017,601,8N5,9N00
2017-11-19 00:00:009,7100,01017,802,1E4,3E00
2017-11-18 23:00:0010,699,81017,601,4E4,0E00
2017-11-18 22:00:0011,199,31017,302,5E3,9SE00
2017-11-18 21:00:0012,098,71017,102,5E7,4NE00
2017-11-18 20:00:0013,098,21016,902,2E4,5E00
2017-11-18 19:00:0014,196,71016,400,7E2,7E00
2017-11-18 18:00:0015,692,71015,902,1SW5,9SW30
2017-11-18 17:00:0017,387,41015,805,5SW13,9S240,0
2017-11-18 16:00:0018,283,11015,607,9S15,6S420,3
2017-11-18 15:00:0019,874,11015,708,3S16,5S2450,9
2017-11-18 14:00:0020,570,31016,409,0S15,7S4371,6
2017-11-18 13:00:0020,468,01017,207,8S14,2S4661,8
2017-11-18 12:00:0020,165,41017,906,2S13,2SE4441,7
2017-11-18 11:00:0017,660,41018,302,1SE6,4E3791,2
2017-11-18 10:00:0012,677,11018,601,2E4,9E2810,5
2017-11-18 09:00:007,298,41018,601,6E9,3E410,1
2017-11-18 08:00:005,7100,01018,202,5E5,2E120
2017-11-18 07:00:005,899,91017,902,2E11,0NE00
2017-11-18 06:00:006,299,81017,801,3NE6,5SE00
2017-11-18 05:00:006,599,71017,701,0NE2,7NE00
2017-11-18 04:00:006,999,41017,702,2N4,3NW00
2017-11-18 03:00:007,499,11017,902,2E3,6E00
2017-11-18 02:00:007,998,91017,801,8E3,8E00
2017-11-18 01:00:008,498,41018,001,6N3,8N00
2017-11-18 00:00:009,498,01018,201,5E3,9E00
2017-11-17 23:00:009,797,11018,002,5E5,8NE00
2017-11-17 22:00:0010,192,51017,80,22,5N6,1N00
2017-11-17 21:00:0010,888,91017,402,1NW4,9NW00
2017-11-17 20:00:0012,395,41017,203,8W8,3W00
2017-11-17 19:00:0013,594,01016,902,4SW5,4SW00
2017-11-17 18:00:0015,286,81016,402,4SW5,8SW30
2017-11-17 17:00:0017,178,91016,005,3SW14,4SW210,0
2017-11-17 16:00:0018,174,71015,807,8S14,1SW400,3
2017-11-17 15:00:0020,165,01016,208,3S15,6SW2481,0
2017-11-17 14:00:0020,962,31017,109,0S16,4S4431,7
2017-11-17 13:00:0020,562,81017,808,4S14,7S4712,0
2017-11-17 12:00:0020,453,21018,605,5S12,9SW4531,9
2017-11-17 11:00:0017,753,51019,403,4E9,1E3891,3
2017-11-17 10:00:0012,969,31019,702,2E5,6SE2910,6
2017-11-17 09:00:007,696,01019,602,0E6,1SE390,1
2017-11-17 08:00:006,0100,01019,102,0E4,3E130
2017-11-17 07:00:006,1100,01018,602,7E5,4E00
2017-11-17 06:00:006,399,91018,302,3E4,2E00
2017-11-17 05:00:006,699,61018,101,7NE3,4N00
2017-11-17 04:00:007,199,41018,201,3NE2,9NE-10
2017-11-17 03:00:007,899,21018,301,5E4,2NE00
2017-11-17 02:00:008,498,81018,301,5NE3,8NE00
2017-11-17 01:00:009,198,51018,402,1E4,6E00
2017-11-17 00:00:009,798,01018,602,2E5,6E00
2017-11-16 23:00:0010,497,21018,602,0NE7,6NE00
2017-11-16 22:00:0011,296,31018,202,3N5,9NW00
2017-11-16 21:00:0012,194,51018,102,6NE5,9N00
2017-11-16 20:00:0013,490,91017,803,1NE6,7E00
2017-11-16 19:00:0014,187,41017,304,0E10,0SE00
2017-11-16 18:00:0015,578,61016,504,3S10,0S30
2017-11-16 17:00:0017,471,31016,007,5S13,9S200,0
2017-11-16 16:00:0018,465,31015,609,1SW17,0S380,3
2017-11-16 15:00:0020,160,61015,9010,2SW21,8S2591,0
2017-11-16 14:00:0021,553,91016,7010,0S17,8SW4521,8
2017-11-16 13:00:0021,150,51017,509,1S16,1S4802,0
2017-11-16 12:00:0020,848,01018,405,2S13,5S4641,9
2017-11-16 11:00:0018,160,91019,102,8SE6,8S3991,4
2017-11-16 10:00:0012,689,41019,501,6SE11,1SE2990,6
2017-11-16 09:00:008,6100,01019,401,5NE8,1NE430,1
2017-11-16 08:00:007,1100,01018,700,8NE2,9NE140,0
2017-11-16 07:00:007,3100,01018,301,3NE6,8NE00
2017-11-16 06:00:007,7100,01018,001,5NE8,1E00
2017-11-16 05:00:008,2100,01017,901,5NE4,4E00
2017-11-16 04:00:008,499,71018,001,2NE3,7NE00
2017-11-16 03:00:008,799,41018,100,9NE5,1NE00
2017-11-16 02:00:009,298,91018,001,0NE7,8NE-10
2017-11-16 01:00:0010,098,61017,900,8N2,9NW-10
2017-11-16 00:00:0010,798,11018,002,1NE5,5N00
2017-11-15 23:00:0011,197,91017,805,3N8,4N00
2017-11-15 22:00:0011,397,11017,801,7NE6,3N00
2017-11-15 21:00:0011,995,71017,701,2E4,1NE-10
2017-11-15 20:00:0012,892,71017,301,5NE7,6NE-10
2017-11-15 19:00:0013,990,11016,602,6NE7,3NE00
2017-11-15 18:00:0015,483,71016,003,4SE12,1SE20
2017-11-15 17:00:0016,977,21015,807,9SE16,7S220,0
2017-11-15 16:00:0017,772,91015,8010,4S17,5SE520,3
2017-11-15 15:00:0019,066,21015,9011,8S21,4SE2811,1
2017-11-15 14:00:0019,963,41016,6013,3S22,8SE4771,9
2017-11-15 13:00:0020,162,81017,2010,6SE19,8SE5272,2
2017-11-15 12:00:0019,764,61018,0010,4SE19,0SE4912,0
2017-11-15 11:00:0018,467,01018,408,1SE17,4S4221,4
2017-11-15 10:00:0014,470,11018,603,6E8,8E2940,7
2017-11-15 09:00:009,080,11018,701,9E4,1SE560,1
2017-11-15 08:00:005,993,01018,402,8E5,0E130,0
2017-11-15 07:00:005,893,01018,102,1E4,6NE00
2017-11-15 06:00:005,993,81017,902,0E5,3E00
2017-11-15 05:00:006,294,31017,602,6E5,5E00
2017-11-15 04:00:006,494,21017,501,8NE7,8E00
2017-11-15 03:00:006,792,81017,703,1E7,6NE-10
2017-11-15 02:00:007,191,51017,402,3NE9,7NE00
2017-11-15 01:00:007,690,81017,502,4E4,6NE00
2017-11-15 00:00:008,190,11017,602,1E4,4E00
2017-11-14 23:00:008,988,21017,702,2E4,3E00
2017-11-14 22:00:009,985,01017,401,0NE3,2W00
2017-11-14 21:00:0010,880,71017,002,3N9,5N00
2017-11-14 20:00:0012,076,61016,203,9NW13,0NW00
2017-11-14 19:00:0012,478,71015,703,5W15,3SW00
2017-11-14 18:00:0014,172,21015,202,7W7,8W30
2017-11-14 17:00:0015,865,51014,904,9SW11,0SW160,0
2017-11-14 16:00:0016,960,21014,808,0S16,5SW440,3
2017-11-14 15:00:0019,144,61015,10,29,9S20,7S2961,1
2017-11-14 14:00:0020,639,41015,8010,7S21,3S5092,0
2017-11-14 13:00:0020,039,71016,609,4S18,2SE5382,3
2017-11-14 12:00:0019,341,01017,607,9S15,8S5122,1
2017-11-14 11:00:0017,441,81018,103,4NE10,6E4351,5
2017-11-14 10:00:0014,060,11018,602,3NE12,9NE3080,7
2017-11-14 09:00:009,080,41018,701,7E4,6NE360,1
2017-11-14 08:00:006,990,11018,402,3E4,8NE130,0
2017-11-14 07:00:006,991,31017,902,2NE5,9NE00
2017-11-14 06:00:007,788,91017,703,4E6,8SE00
2017-11-14 05:00:008,289,91017,404,8E8,9E-10
2017-11-14 04:00:007,894,51017,302,8E9,2E00
2017-11-14 03:00:008,295,81017,302,9NE9,8N00
2017-11-14 02:00:008,996,51017,103,2N7,0NW-10
2017-11-14 01:00:009,694,51017,301,9E5,2S00
2017-11-14 00:00:0010,392,21016,902,6N5,3N00
2017-11-13 23:00:0011,090,51016,802,9NW7,6NW00
2017-11-13 22:00:0011,788,91016,703,6N7,2NW00
2017-11-13 21:00:0012,885,21016,304,6NW12,3NW-10
2017-11-13 20:00:0013,682,61015,805,6NW11,9NW-10
2017-11-13 19:00:0014,876,41015,407,9NW17,5N-10
2017-11-13 18:00:0016,568,91015,008,4NW19,3N30
2017-11-13 17:00:0018,563,61014,6011,9NW23,8NW160,0
2017-11-13 16:00:0019,261,21014,5011,1NW24,8N420,3
2017-11-13 15:00:0020,457,11014,8013,4NW26,5N3191,1
2017-11-13 14:00:0022,048,51016,0010,4NW27,2NW5112,0
2017-11-13 13:00:0020,552,01017,508,2N20,1N5422,3
2017-11-13 12:00:0019,258,71018,409,1N19,5NW5182,1
2017-11-13 11:00:0017,565,71019,2011,1N27,5NE4431,5
2017-11-13 10:00:0015,973,31019,9015,2N28,7N3040,7
2017-11-13 09:00:0013,285,11020,6013,3N23,7NE340,1
2017-11-13 08:00:009,194,31020,106,0NE21,6N120,0
2017-11-13 07:00:008,993,71019,603,2NE7,2NE00
2017-11-13 06:00:009,492,81019,304,8N9,7NE00
2017-11-13 05:00:0010,090,11019,103,3NW10,3N00
2017-11-13 04:00:009,988,71019,305,6N14,9N-10
2017-11-13 03:00:009,888,01019,504,2N9,9NE00
2017-11-13 02:00:0010,385,61019,403,5N11,8NW00
2017-11-13 01:00:0010,588,81019,903,0NW6,7NW00
2017-11-13 00:00:0010,591,31019,802,7N8,8N00
2017-11-12 23:00:0010,892,01019,803,4NW7,7NW00
2017-11-12 22:00:0011,490,01019,401,4W5,0NW-10
2017-11-12 21:00:0012,387,11019,102,4NW6,3NW00
2017-11-12 20:00:0013,683,11018,703,6NW8,3N00
2017-11-12 19:00:0015,176,51018,205,2NW13,8NW00
2017-11-12 18:00:0017,168,61017,905,2NW9,9NW30
2017-11-12 17:00:0019,660,41017,507,9W16,9W170,0
2017-11-12 16:00:0020,952,21017,506,9W14,0W410,3
2017-11-12 15:00:0023,041,31018,107,8SW15,0W3301,1
2017-11-12 14:00:0024,637,71019,006,2SW18,9W5131,9
2017-11-12 13:00:0022,940,81020,007,0SE14,1E5472,3
2017-11-12 12:00:0021,843,61021,304,7SE11,0SE5232,1
2017-11-12 11:00:0019,353,81022,202,6SE9,0E4501,5
2017-11-12 10:00:0015,170,21022,801,3E4,4E3230,7
2017-11-12 09:00:008,791,81023,101,2NE3,8N390,1
2017-11-12 08:00:006,595,81022,900,8E2,1SE130,0
2017-11-12 07:00:006,595,51022,501,3N3,4N00
2017-11-12 06:00:006,895,01022,701,2NE3,2NE-10
2017-11-12 05:00:007,194,71022,500,2E1,8E-10
2017-11-12 04:00:007,593,51022,001,0N3,5E00
2017-11-12 03:00:008,192,81022,301,2N7,5NE-10
2017-11-12 02:00:008,591,81022,502,2N6,3NW00
2017-11-12 01:00:009,290,31023,001,7N5,1E00
2017-11-12 00:00:009,887,51023,301,5SE4,8NW00
2017-11-11 23:00:0010,684,71023,401,3E3,3NE00
2017-11-11 22:00:0011,480,71023,301,2N5,4N00
2017-11-11 21:00:0012,277,31022,703,1NW13,8NW00
2017-11-11 20:00:0014,169,01022,304,6NW14,9NW00
2017-11-11 19:00:0016,162,11021,907,7NW16,6NW00
2017-11-11 18:00:0017,559,21021,409,5NW18,4NW30
2017-11-11 17:00:0019,455,31021,4011,3W24,1W170,0
2017-11-11 16:00:0019,851,71021,5010,4SW22,4SW420,4
2017-11-11 15:00:0022,050,41022,2010,3SW19,0SW3491,2
2017-11-11 14:00:0023,245,21023,008,8SW17,7W5212,1
2017-11-11 13:00:0022,245,01023,9010,0S23,7S5512,4
2017-11-11 12:00:0022,839,71025,307,4S15,5S5262,2
2017-11-11 11:00:0020,644,71026,105,0E15,4SE4511,6
2017-11-11 10:00:0016,357,91026,404,0E9,8SE3180,8
2017-11-11 09:00:0010,773,21026,701,7E5,4NE370,1
2017-11-11 08:00:008,080,31026,602,8NE9,4NE120,0
2017-11-11 07:00:007,680,91026,404,4E9,2E00
2017-11-11 06:00:007,681,01026,303,3E7,0NE00
2017-11-11 05:00:007,880,51026,202,6NE7,3NE-10
2017-11-11 04:00:008,278,71026,302,2NE5,9NE00
2017-11-11 03:00:009,074,61026,502,0E5,5E00
2017-11-11 02:00:009,374,61026,603,1E8,8E00
2017-11-11 01:00:009,970,51026,702,2E7,3NE00
2017-11-11 00:00:0010,865,91026,602,5NE6,9E00
2017-11-10 23:00:0011,463,11026,603,4NE8,3N00
2017-11-10 22:00:0012,955,21026,503,6E10,1NE-10
2017-11-10 21:00:0014,049,61026,205,6NE13,1NE-10
2017-11-10 20:00:0013,547,61025,705,8N10,7N00
2017-11-10 19:00:0015,539,31025,20,26,7N12,7N00
2017-11-10 18:00:0017,733,91024,709,0N16,8N30
2017-11-10 17:00:0019,432,11024,3011,3N22,7N200,1
2017-11-10 16:00:0020,530,21024,3011,3NE27,9NE480,4
2017-11-10 15:00:0021,928,81024,709,4NE19,0NE3631,1
2017-11-10 14:00:0022,127,21025,409,4NE22,2N5222,0
2017-11-10 13:00:0020,926,91026,208,8NE18,6NE5542,3
2017-11-10 12:00:0019,131,91026,907,9E15,6E5322,1
2017-11-10 11:00:0017,237,01027,308,5NE15,9NE4581,5
2017-11-10 10:00:0014,444,41027,705,2NE12,5NE3220,7
2017-11-10 09:00:0011,252,01027,808,4NE16,9N380,1
2017-11-10 08:00:009,555,31027,309,0NE18,5NE130,0
2017-11-10 07:00:009,156,31026,606,6NE13,0NE00
2017-11-10 06:00:0010,052,71026,409,1NE19,8NE-10
2017-11-10 05:00:009,953,31026,309,3NE22,4NE00
2017-11-10 04:00:009,754,11026,005,0NE14,4N00
2017-11-10 03:00:0010,351,21025,706,3NE16,8NE00
2017-11-10 02:00:0011,048,61025,606,8NE18,5N-10
2017-11-10 01:00:0011,544,91025,705,6NE18,8N-10
2017-11-10 00:00:0012,441,61025,4011,0N23,3NE-10
2017-11-09 23:00:0012,940,01025,2012,7NE26,5NE-10
2017-11-09 22:00:0013,239,21025,207,9NE19,3NE00
2017-11-09 21:00:0013,936,11024,307,7NE15,0NE00
2017-11-09 20:00:0014,234,51023,608,0N20,1N00
2017-11-09 19:00:0015,032,11022,809,3NE18,2NE-10
2017-11-09 18:00:0016,131,21022,009,5NE23,1NE30
2017-11-09 17:00:0017,528,41021,2017,0NE36,3NE230,0
2017-11-09 16:00:0018,425,61020,5017,0NE36,5NE490,3
2017-11-09 15:00:0019,724,81020,6014,5NE31,6N3791,1
2017-11-09 14:00:0020,225,31021,4017,3NE37,1N5351,9
2017-11-09 13:00:0019,628,31021,9015,2NE33,6N5662,1
2017-11-09 12:00:0018,433,21022,90,212,4NE25,2E5432,0
2017-11-09 11:00:0016,540,41023,4014,7NE31,3NE4671,4
2017-11-09 10:00:0014,448,81023,6014,7NE28,7NE3260,7
2017-11-09 09:00:0012,354,81023,4014,2NE31,3N490,1
2017-11-09 08:00:0011,357,91022,5010,3NE28,4N150,0
2017-11-09 07:00:0011,457,31021,807,7NE19,3NE00
2017-11-09 06:00:0011,956,11021,3011,5NE29,4NE00
2017-11-09 05:00:0012,255,21020,9012,5NE26,0NE00
2017-11-09 04:00:0012,354,51020,7013,8NE27,8NE-10
2017-11-09 03:00:0012,154,61020,706,4NE15,5NE00
2017-11-09 02:00:0011,856,51020,604,9NE12,8NE00
2017-11-09 01:00:0013,351,91020,805,0NE16,2NE00
2017-11-09 00:00:0014,348,31020,908,2NE21,4E00
2017-11-08 23:00:0014,751,01020,9010,0NE21,6NE00
2017-11-08 22:00:0015,352,51020,4012,0NE24,1N00
2017-11-08 21:00:0015,154,51019,9010,2N22,9N00
2017-11-08 20:00:0013,471,31019,204,5NW12,9N00
2017-11-08 19:00:0015,365,51018,503,0W10,4N00
2017-11-08 18:00:0018,050,01018,209,3N21,1N40
2017-11-08 17:00:0019,445,61018,0012,1NE23,8N210,1
2017-11-08 16:00:0019,851,21017,707,8NE23,1N530,4
2017-11-08 15:00:0021,751,51017,906,5SW16,3S3681,2
2017-11-08 14:00:0023,443,81018,404,4SW14,4W5262,1
2017-11-08 13:00:0022,144,51019,004,3SW13,3SW5632,4
2017-11-08 12:00:0020,348,41020,304,7NE13,8N5372,3
2017-11-08 11:00:0018,455,91021,106,1NE12,5N4571,6
2017-11-08 10:00:0016,264,91021,306,2NE13,3NE3290,8
2017-11-08 09:00:0012,881,91021,306,0E13,5E480,2
2017-11-08 08:00:0011,685,81020,605,6E13,0E140,0
2017-11-08 07:00:0011,586,21020,006,0E13,6E00
2017-11-08 06:00:0012,282,41019,706,3E16,0NE00
2017-11-08 05:00:0012,481,21019,408,6NE18,1NE-10
2017-11-08 04:00:0011,683,11019,304,6NE12,5NE00
2017-11-08 03:00:0012,776,91019,406,0NE16,3NE-10
2017-11-08 02:00:0013,373,11019,508,9NE22,8N00
2017-11-08 01:00:0013,769,41019,608,0NE17,7NE00
2017-11-08 00:00:0014,565,41019,609,9NE19,3NE00
2017-11-07 23:00:0014,765,51019,5010,9NE20,4N00
2017-11-07 22:00:0012,573,01019,006,5N14,7N00
2017-11-07 21:00:0013,072,21018,303,2NW6,6NW00
2017-11-07 20:00:0013,966,41017,903,6NW7,9NW00
2017-11-07 19:00:0016,250,81017,304,3NW14,7N00
2017-11-07 18:00:0019,040,11017,007,0N17,4NE40
2017-11-07 17:00:0020,636,31016,8011,7N21,8N190,1
2017-11-07 16:00:0020,051,01016,205,5S14,9NE500,4
2017-11-07 15:00:0022,044,51016,407,8SW18,4SW3801,1
2017-11-07 14:00:0022,840,71017,009,1SW21,4SW5321,9
2017-11-07 13:00:0021,941,01017,808,3SW15,2SW5632,3
2017-11-07 12:00:0021,339,71018,306,0S12,3S5402,1
2017-11-07 11:00:0019,342,61018,804,2SE11,4SE4651,5
2017-11-07 10:00:0016,551,51019,105,3E11,5E3380,8
2017-11-07 09:00:0013,559,21019,305,8NE13,3NE580,2
2017-11-07 08:00:0011,765,81018,708,6NE18,1NE150,0
2017-11-07 07:00:0011,270,51018,206,1NE12,7NE00
2017-11-07 06:00:0011,666,51018,006,3E14,9NE00
2017-11-07 05:00:0011,963,71017,904,3NE12,4NE-10
2017-11-07 04:00:0012,064,21017,805,7NE12,4E00
2017-11-07 03:00:0012,860,71017,906,6NE15,2N00
2017-11-07 02:00:0012,761,51018,005,4NE11,2NE00
2017-11-07 01:00:0013,957,11018,205,8NE12,5NE-10
2017-11-07 00:00:0014,554,51018,108,5NE16,5NE00
2017-11-06 23:00:0014,754,31018,205,7NE15,1NE00
2017-11-06 22:00:0015,453,31018,008,2NE17,9NE00
2017-11-06 21:00:0015,754,71017,708,9NE19,0NE00
2017-11-06 20:00:0014,974,21017,305,3N15,3NE00
2017-11-06 19:00:0015,277,31016,703,0W9,9NW00
2017-11-06 18:00:0017,168,31016,203,2SW8,1W40
2017-11-06 17:00:0018,960,61016,005,9SW15,8SW190,0
2017-11-06 16:00:0020,252,71015,908,4SW14,8SW460,4
2017-11-06 15:00:0022,742,41016,308,0S15,7S3821,2
2017-11-06 14:00:0023,638,81017,408,7S17,4NE5242,0
2017-11-06 13:00:0022,838,61018,3011,0E25,0NE5562,3
2017-11-06 12:00:0021,739,81019,4010,1E23,1E5332,1
2017-11-06 11:00:0019,344,61020,0011,2E21,9NE4591,5
2017-11-06 10:00:0016,654,51020,408,4E19,7E3430,8
2017-11-06 09:00:0012,768,91020,804,9NE13,6E570,2
2017-11-06 08:00:0010,973,31020,604,8NE12,4NE160,0
2017-11-06 07:00:0010,872,41020,205,4NE12,6NE00
2017-11-06 06:00:0011,967,41020,308,6NE23,8N00
2017-11-06 05:00:0011,770,11020,508,7NE31,9NE-10
2017-11-06 04:00:0011,275,41020,706,0NE17,0N-10
2017-11-06 03:00:0011,575,91021,105,3E10,4E00
2017-11-06 02:00:0012,273,01021,204,9NE10,1NE00
2017-11-06 01:00:0012,572,11021,504,1E10,7NE00
2017-11-06 00:00:0013,369,21021,604,3E9,5NE00
2017-11-05 23:00:0014,365,21021,505,0NE15,9N00
2017-11-05 22:00:0014,862,41021,408,8N17,7N00
2017-11-05 21:00:0014,164,31020,407,5N13,3N00
2017-11-05 20:00:0015,260,41020,008,7N13,7N00
2017-11-05 19:00:0016,953,11019,606,7N12,2N00
2017-11-05 18:00:0018,648,21019,0010,7N20,3NE40
2017-11-05 17:00:0019,947,51018,8011,2NE25,2N200,1
2017-11-05 16:00:0020,747,01018,509,7N18,9N510,4
2017-11-05 15:00:0022,245,81018,609,9N22,5N3971,2
2017-11-05 14:00:0022,546,01019,2011,6N23,3N5242,0
2017-11-05 13:00:0021,551,11020,006,5N17,0N5492,3
2017-11-05 12:00:0019,957,91021,007,5NE18,7NE5262,1
2017-11-05 11:00:0018,762,01021,406,0E17,1E4541,5
2017-11-05 10:00:0017,166,11021,503,8NE11,3NE3410,8
2017-11-05 09:00:0015,071,61021,606,4NE16,6N670,2
2017-11-05 08:00:0014,071,31020,9011,7N20,9N210,0
2017-11-05 07:00:0013,871,91020,1015,3N28,3N00
2017-11-05 06:00:0012,984,01020,008,3NW17,0NW00
2017-11-05 05:00:0013,784,51019,5010,0N15,0N00
2017-11-05 04:00:0014,086,31019,209,8NW20,2N00
2017-11-05 03:00:0013,787,81019,504,2N11,5N00
2017-11-05 02:00:0013,888,31019,204,7NW12,5NW00
2017-11-05 01:00:0014,384,71019,103,8W11,0NW00
2017-11-05 00:00:0015,579,01018,707,7N18,9N00
2017-11-04 23:00:0015,580,81018,4010,2N17,1NW00
2017-11-04 22:00:0015,785,11017,909,5NW15,9N00
2017-11-04 21:00:0016,184,41017,1010,5NW18,9NW00
2017-11-04 20:00:0016,284,31016,408,0NW17,4N00
2017-11-04 19:00:0017,080,31015,508,0NW19,1NW00
2017-11-04 18:00:0018,074,71014,609,6NW24,4N80
2017-11-04 17:00:0019,367,21013,9014,7NW28,8N470,1
2017-11-04 16:00:0020,362,21013,3016,2NW35,1NW930,4
2017-11-04 15:00:0021,257,91012,7015,8NW34,0NW3181,2
2017-11-04 14:00:0022,357,01012,7013,5NW30,7NW4612,0
2017-11-04 13:00:0021,663,11012,8013,0NW27,3NW5372,5
2017-11-04 12:00:0020,866,51013,0014,5NW29,1W4542,1
2017-11-04 11:00:0019,179,71012,9010,8NW24,7W3781,5
2017-11-04 10:00:0016,2100,01012,908,3NW24,5NW3270,8
2017-11-04 09:00:0014,9100,01012,705,6W15,3W880,2
2017-11-04 08:00:0013,7100,01011,806,5W15,5W250,0
2017-11-04 07:00:0013,7100,01011,006,9W12,6W10
2017-11-04 06:00:0014,1100,01010,307,4W14,8NW10
2017-11-04 05:00:0014,2100,01009,907,7W14,9W00
2017-11-04 04:00:0014,5100,01009,506,5W13,3W00
2017-11-04 03:00:0014,9100,01009,405,0W12,3W00
2017-11-04 02:00:0015,2100,01009,406,0W19,8W00
2017-11-04 01:00:0015,5100,01009,61,27,9W26,5NW10
2017-11-04 00:00:0015,7100,01009,608,1W22,1W00
2017-11-03 23:00:0015,9100,01009,6011,2W25,1W00
2017-11-03 22:00:0015,6100,01009,71,68,9W33,3W00
2017-11-03 21:00:0016,299,21009,52,26,7W21,8SW00
2017-11-03 20:00:0016,098,01009,527,3SW18,6W00
2017-11-03 19:00:0017,289,21009,40,88,0W26,0W00
2017-11-03 18:00:0018,875,81009,1012,3W28,0W30
2017-11-03 17:00:0020,072,21008,9012,6SW30,2SW370,1
2017-11-03 16:00:0020,774,61009,1012,1SW26,3SW1150,4
2017-11-03 15:00:0021,970,11009,3012,4SW27,8SW3801,3
2017-11-03 14:00:0021,374,21009,6011,3SW23,7W4271,8
2017-11-03 13:00:0020,976,71010,20,213,5SW30,3SW2131,2
2017-11-03 10:00:0016,0100,01012,103,1E7,5NE3520,8
2017-11-03 09:00:0013,9100,01012,403,3E7,6E1060,2
2017-11-03 08:00:0013,0100,01012,003,5E7,3E150,0
2017-11-03 07:00:0013,3100,01011,603,8E8,4E10
2017-11-03 06:00:0013,6100,01011,702,1E5,0E00
2017-11-03 05:00:0013,7100,01011,703,2E6,8E00
2017-11-03 04:00:0014,2100,01011,90,23,9E7,1E00
2017-11-03 03:00:0014,6100,01012,002,6E6,9NE00
2017-11-03 02:00:0015,0100,01012,202,9E8,0SE00
2017-11-03 01:00:0015,4100,01012,701,0NE2,8E00
2017-11-03 00:00:0015,6100,01012,700,9NE4,6NE00
2017-11-02 23:00:0016,0100,01012,901,7E5,9NE00
2017-11-02 22:00:0016,4100,01013,002,3N5,2N00
2017-11-02 21:00:0016,699,91012,40,22,4W6,9SW00
2017-11-02 20:00:0016,999,51012,31,45,6SW15,2SW00
2017-11-02 19:00:0016,898,71012,05,29,5W23,9SW00
2017-11-02 18:00:0018,592,31011,42,410,3SW34,1W10
2017-11-02 17:00:0020,676,71011,309,4S18,4S240,0
2017-11-02 16:00:0021,872,51011,6010,6SW22,1SW1310,4
2017-11-02 15:00:0022,970,71012,2012,7SW26,2W3561,6
2017-11-02 13:00:0020,788,01013,5011,8SW25,1S5242,6
2017-11-02 07:00:0015,092,51014,202,2E5,6E00
2017-11-02 06:00:0015,191,91014,302,0E5,2E00
2017-11-02 05:00:0015,292,21014,201,9E5,3E00
2017-11-02 04:00:0015,291,71014,102,0E5,1E00
2017-11-02 03:00:0015,290,71014,301,4NE4,5E00
2017-11-02 02:00:0015,788,81014,502,1NE7,1E00
2017-11-02 01:00:0015,988,01014,802,9E6,3E00
2017-11-02 00:00:0015,888,11015,001,9E4,7E00
2017-11-01 23:00:0016,385,81015,102,1E5,2NE00
2017-11-01 22:00:0016,684,51015,001,8NE5,3E00
2017-11-01 21:00:0017,282,31014,502,5S8,3E00
2017-11-01 20:00:0017,678,81014,103,6SW11,3SW00
2017-11-01 19:00:0018,775,71013,704,0SW15,5SW00
2017-11-01 18:00:0020,076,11013,205,6SW13,4SW100
2017-11-01 17:00:0021,371,71013,205,7SW13,4SW620,0
2017-11-01 16:00:0021,968,41013,406,7SW14,8SW1280,4
2017-11-01 15:00:0023,263,11013,608,5S19,9S3331,3
2017-11-01 14:00:0023,562,61014,209,0S18,4S3941,9
2017-11-01 13:00:0023,563,01015,0011,0SW21,3SW4792,4
2017-11-01 12:00:0023,364,01015,5010,3SW20,0SW4122,1
2017-11-01 11:00:0022,171,41015,807,5SW18,4SW3371,5
2017-11-01 10:00:0021,277,71015,506,0SW19,1W2650,8
2017-11-01 09:00:0018,292,31015,301,5W6,7W1000,1
2017-11-01 08:00:0016,895,21015,103,4E8,9E380
2017-11-01 07:00:0016,695,21014,703,5NE7,1E00
2017-11-01 06:00:0016,693,81014,501,8N8,2E00
2017-11-01 05:00:0016,993,81014,605,3E11,1E00
2017-11-01 04:00:0016,894,21014,906,6E13,6NE00
2017-11-01 03:00:0017,192,41015,205,5NE13,0E00
2017-11-01 02:00:0018,886,81015,209,2E20,4SE00
2017-11-01 01:00:0018,190,41015,305,6E15,4SE00
2017-11-01 00:00:0017,690,21015,805,2E11,2E00
2017-10-31 23:00:0017,689,61016,004,1NE10,7E00
2017-10-31 22:00:0017,988,91015,905,2E11,1E00
2017-10-31 21:00:0018,088,01015,605,4NE13,8E00
2017-10-31 20:00:0018,386,71015,105,5E9,8E00
2017-10-31 19:00:0019,182,61014,806,8E14,3E00
2017-10-31 18:00:0020,078,41014,6010,2E24,3E70
2017-10-31 17:00:0020,874,01014,3013,6SE22,6SE340,1
2017-10-31 16:00:0021,571,31014,0012,8SE25,3SE910,5
2017-10-31 15:00:0022,667,31014,0014,3SE26,8SE3791,4
2017-10-31 14:00:0022,568,41014,3014,1SE26,0SE3681,8
2017-10-31 13:00:0022,368,61014,8012,9SE25,0SE3782,0
2017-10-31 12:00:0022,269,01015,4013,4SE22,8S4142,0
2017-10-31 11:00:0020,776,31015,7010,7SE21,2SE2351,1
2017-10-31 10:00:0018,091,51016,106,4E16,5E3130,8
2017-10-31 09:00:0014,299,61016,002,8E11,0E1040,2
2017-10-31 08:00:0012,599,61015,303,1NE7,1SE420,0
2017-10-31 07:00:0012,499,61014,803,2E7,1E20
2017-10-31 06:00:0012,299,41014,402,1E7,1E10
2017-10-31 05:00:0012,799,21014,002,2E6,3E10
2017-10-31 04:00:0013,399,11013,802,4E7,3NE10
2017-10-31 03:00:0013,598,81013,703,6E8,3E10
2017-10-31 02:00:0013,898,61013,603,0E7,4E10
2017-10-31 01:00:0014,398,11013,402,0E4,8E00
2017-10-31 00:00:0014,797,61013,302,4E7,1N00
2017-10-30 23:00:0015,396,91013,202,0E4,9E00
2017-10-30 22:00:0015,895,51012,902,7NE7,5SE00
2017-10-30 21:00:0016,793,41012,501,8NE6,5NE00
2017-10-30 20:00:0017,691,31012,303,9E7,9SE00
2017-10-30 19:00:0018,587,31012,003,3E6,4S00
2017-10-30 18:00:0019,882,91011,405,4SE13,5SE120
2017-10-30 17:00:0020,880,31011,107,6SE14,4S630,0
2017-10-30 16:00:0021,479,01010,809,6S20,5S1100,4
2017-10-30 15:00:0022,376,21011,0012,0S24,7SE2321,1
2017-10-30 14:00:0024,170,71011,4011,7S25,5SE5242,1
2017-10-30 13:00:0023,869,11012,1011,3S20,6S5642,5
2017-10-30 12:00:0024,066,11013,1011,7S20,9S5402,3
2017-10-30 11:00:0022,863,21013,706,5SE17,7S4691,8
2017-10-30 10:00:0018,965,61014,103,1E7,2E3580,9
2017-10-30 09:00:0013,684,51014,204,0E10,3E1200,2
2017-10-30 08:00:0010,597,91014,003,5E8,9E670,0
2017-10-30 07:00:0010,298,81013,604,2E10,7NE20
2017-10-30 06:00:0010,599,11013,503,0E9,5E20
2017-10-30 05:00:0011,099,01013,402,6E6,9E20
2017-10-30 04:00:0011,799,01013,402,5N9,3N20
2017-10-30 03:00:0012,298,81013,702,6NE6,1NW10
2017-10-30 02:00:0012,998,41014,102,5E4,4E00
2017-10-30 01:00:0013,998,01014,401,8NE5,0N00
2017-10-30 00:00:0015,097,61014,901,6NE3,8N-10
2017-10-29 23:00:0015,196,91015,201,9NE4,9E00
2017-10-29 22:00:0015,595,21015,301,7NW5,4N00
2017-10-29 21:00:0016,193,11015,203,4W7,9NW00
2017-10-29 20:00:0017,692,71015,103,6NW7,3NW00
2017-10-29 19:00:0018,878,11014,405,4NW15,1NW00
2017-10-29 18:00:0019,685,31014,106,1SW15,2SW70
2017-10-29 17:00:0020,685,41014,3010,2SW20,1SW270,1
2017-10-29 16:00:0021,480,41014,5011,0SW19,3SW750,6
2017-10-29 15:00:0024,367,81015,209,8SW21,4SW4181,6
2017-10-29 14:00:0025,163,21016,009,5S16,8S5472,5
2017-10-29 13:00:0024,464,41017,009,2S17,6S5822,9
2017-10-29 12:00:0024,562,51017,908,3S17,2S5582,7
2017-10-29 11:00:0022,767,71018,503,7SE11,3S4842,0
2017-10-29 10:00:0019,171,61019,002,2E5,4E3681,1
2017-10-29 09:00:0014,085,11019,001,9E4,0E1200,2
2017-10-29 08:00:0011,294,81018,801,2E3,6NE650,0
2017-10-29 07:00:0011,094,41018,502,0E3,9E10
2017-10-29 06:00:0011,693,61018,202,3E5,4NE00
2017-10-29 05:00:0011,793,31018,103,5E6,9NE00
2017-10-29 04:00:0012,192,01018,002,3E7,3E00
2017-10-29 03:00:0012,490,11018,103,3E6,0E00
2017-10-29 02:00:0012,888,31018,202,7E6,4NE00
2017-10-29 02:00:0013,288,61018,302,8E5,8E00
2017-10-29 01:00:0013,790,61018,302,8E9,6E00
2017-10-29 00:00:0014,392,61018,302,7E5,3E00
2017-10-28 23:00:0015,493,91018,102,5E5,7NE00
2017-10-28 22:00:0016,792,21018,001,7NE4,6E00
2017-10-28 21:00:0018,089,21017,802,4E5,9E-10
2017-10-28 20:00:0019,383,21017,503,4E7,4E00
2017-10-28 19:00:0020,970,01016,804,9SE10,7SE80
2017-10-28 18:00:0022,755,11016,307,5SE14,7SE300,1
2017-10-28 17:00:0023,653,91016,007,1S14,7S960,5
2017-10-28 16:00:0027,043,21016,308,8S18,3SW4231,6
2017-10-28 15:00:0027,541,21016,6010,7S23,8SE5492,5
2017-10-28 14:00:0028,334,91017,5011,3S23,2S5832,8
2017-10-28 13:00:0029,628,81018,208,0S19,0S5552,6
2017-10-28 12:00:0027,930,91019,004,6E12,3NE4872,0
2017-10-28 11:00:0023,042,31019,202,1SE10,6S3671,1
2017-10-28 10:00:0016,268,01019,202,9E8,8E1300,2
2017-10-28 09:00:0012,282,11019,002,4E5,7E620,0
2017-10-28 08:00:0011,482,81018,803,0E5,8NE10
2017-10-28 07:00:0011,582,21018,702,8NE7,0E00
2017-10-28 06:00:0011,582,41018,703,2E5,2E00
2017-10-28 05:00:0011,780,31019,003,1E5,9NE00
2017-10-28 04:00:0012,280,31019,402,5E4,6NE00
2017-10-28 03:00:0012,582,01019,602,2NE5,3NE00
2017-10-28 02:00:0013,080,51019,901,9NE3,9NE00
2017-10-28 01:00:0013,779,21020,101,5NE3,6E00
2017-10-28 00:00:0014,478,31020,301,7NE4,9NE00
2017-10-27 23:00:0015,477,31020,302,7NE8,9NE00
2017-10-27 22:00:0016,174,21020,202,8N5,1NW00
2017-10-27 21:00:0017,171,31020,201,3NE6,8E00
2017-10-27 20:00:0018,567,31019,802,7W5,5NW00
2017-10-27 19:00:0020,958,81019,502,5W6,1W60
2017-10-27 18:00:0022,752,91019,305,6S11,8S210,1
2017-10-27 17:00:0024,246,21019,306,2S14,9SW820,5
2017-10-27 16:00:0026,644,81019,808,5S17,5S4421,7
2017-10-27 15:00:0028,039,11020,5010,2S22,7S5632,5
2017-10-27 14:00:0027,139,11021,2012,0S23,1S5942,9
2017-10-27 13:00:0026,833,51022,2013,9SE29,4SE5642,6
2017-10-27 12:00:0025,436,81022,909,5SE25,5SE4932,0
2017-10-27 11:00:0020,352,81023,001,8SE5,0NE3771,1
2017-10-27 10:00:0014,973,31022,801,4E6,5SE1340,2
2017-10-27 09:00:0011,684,71022,401,6E3,9E690,0
2017-10-27 08:00:0010,985,81021,601,3NE4,6N10
2017-10-27 07:00:0011,387,11021,202,5N5,2N00
2017-10-27 06:00:0011,786,41021,202,3E4,0NE00
2017-10-27 05:00:0012,483,51021,202,4E4,0SE00
2017-10-27 04:00:0013,279,81021,302,1E5,1E00
2017-10-27 03:00:0013,480,81021,402,4E5,0E00
2017-10-27 02:00:0013,880,41021,403,6E9,5E00
2017-10-27 01:00:0014,179,71021,402,8E5,6E00
2017-10-27 00:00:0015,176,01021,302,9NE9,7NE00
2017-10-26 23:00:0016,371,61020,803,2N6,9N00
2017-10-26 22:00:0017,171,01020,602,7N7,5N00
2017-10-26 21:00:0017,870,11020,003,1NW12,2NW00
2017-10-26 20:00:0019,358,51019,503,0W6,6W00
2017-10-26 19:00:0022,047,01019,102,5E7,4E70,0
2017-10-26 18:00:0023,053,01018,605,8SE17,4SE260,1
2017-10-26 17:00:0024,648,41018,2011,1S21,8S860,5
2017-10-26 16:00:0026,741,21018,6010,6S23,3SE4201,7
2017-10-26 15:00:0027,834,21019,3012,9S25,2S5402,5
2017-10-26 14:00:0027,834,71020,1013,0SE30,0E5692,9
2017-10-26 13:00:0026,933,11020,9014,4SE31,9E5422,7
2017-10-26 12:00:0025,044,71021,308,6E20,2SE4762,0
2017-10-26 11:00:0019,673,51021,702,7E9,0S3681,0
2017-10-26 10:00:0014,696,11021,602,5E6,1E1610,2
2017-10-26 09:00:0013,399,31021,203,5E6,3E680,0
2017-10-26 08:00:0012,899,21020,803,0E4,9E10
2017-10-26 07:00:0013,198,91020,502,4E7,9E-10
2017-10-26 06:00:0013,498,71020,202,1E3,8E-10
2017-10-26 05:00:0013,998,51020,102,2E5,2E-10
2017-10-26 04:00:0014,298,11020,202,4E6,3E00
2017-10-26 03:00:0014,797,71020,302,7E9,1E00
2017-10-26 02:00:0015,297,21020,202,1E4,0E00
2017-10-26 01:00:0015,996,41020,302,4E6,3E-10
2017-10-26 00:00:0016,795,81020,202,6E5,2NE00
2017-10-25 23:00:0017,794,01020,102,7NE6,1NE00
2017-10-25 22:00:0018,891,61019,803,4E7,7E00
2017-10-25 21:00:0019,887,51019,304,7E9,1E-10
2017-10-25 20:00:0020,584,81018,907,7SE17,0E00
2017-10-25 19:00:0020,983,61018,508,8SE18,3E130
2017-10-25 18:00:0021,780,11018,209,8SE18,6S740,1
2017-10-25 17:00:0022,576,31018,1011,7SE22,5SE1440,6
2017-10-25 16:00:0023,372,31018,1013,7SE25,3SE4101,5
2017-10-25 15:00:0023,072,81018,2014,7SE26,1SE3431,8
2017-10-25 14:00:0022,972,11018,7014,5SE28,9SE3702,0
2017-10-25 13:00:0022,671,51019,0012,9SE26,4SE3891,9
2017-10-25 12:00:0021,473,21019,3013,4SE30,8SE2541,2
2017-10-25 11:00:0020,474,41019,2010,3SE24,0E2210,7
2017-10-25 10:00:0018,480,21018,907,8E16,4NE1500,3
2017-10-25 09:00:0016,987,01018,408,1E15,6NE650,0
2017-10-25 08:00:0016,090,91018,305,7E13,0E00
2017-10-25 07:00:0015,491,61018,303,4E9,7SE00
2017-10-25 06:00:0014,892,31018,204,0E8,1E00
2017-10-25 05:00:0014,195,01018,203,8E7,5E00
2017-10-25 04:00:0014,194,61018,402,9E6,9E00
2017-10-25 03:00:0014,493,81018,502,2E6,7E-10
2017-10-25 02:00:0014,694,01018,303,4E7,1E00
2017-10-25 01:00:0015,091,71018,302,6E5,3E-10
2017-10-25 00:00:0015,988,81018,202,9E8,1E-10
2017-10-24 23:00:0016,888,7101803,4E9,9NE00
2017-10-24 22:00:0017,786,81017,803,4E7,3E-10
2017-10-24 21:00:0019,280,41017,704,8E10,6E-10
2017-10-24 20:00:0020,475,41017,508,1SE18,4E00
2017-10-24 19:00:0021,373,01017,2010,9SE25,0E90,0
2017-10-24 18:00:0022,171,01017,1013,9SE25,1E290,1
2017-10-24 17:00:0022,967,71016,9015,1SE36,0SE830,6
2017-10-24 16:00:0024,163,81017,0017,9SE36,4SE4611,8
2017-10-24 15:00:0024,463,51017,6016,4SE32,5SE5672,6
2017-10-24 14:00:0024,264,81018,0017,7SE35,1E6013,0
2017-10-24 13:00:0023,765,01018,3019,2SE37,7E5752,8
2017-10-24 12:00:0022,967,31018,7017,9SE34,9SE5042,1
2017-10-24 11:00:0021,471,21018,9014,9E31,3SE3821,2
2017-10-24 10:00:0017,479,81018,906,5E16,5E1790,3
2017-10-24 09:00:0013,794,31018,704,0E11,9E780,0
2017-10-24 08:00:0012,994,11018,302,4E5,2E10
2017-10-24 07:00:0013,492,71018,203,3NE7,0NE00
2017-10-24 06:00:0013,291,61018,103,3E8,3E-10
2017-10-24 05:00:0013,490,31018,202,1E5,1NE00
2017-10-24 04:00:0013,888,71018,401,5NE4,3N00
2017-10-24 03:00:0014,187,81018,402,1E4,9E00
2017-10-24 02:00:0015,184,31018,402,6E7,5E00
2017-10-24 01:00:0015,683,21018,603,4NE7,9E-10
2017-10-24 00:00:0015,784,61018,602,9NE10,6NE00
2017-10-23 23:00:0016,481,71018,302,6E8,9NE00
2017-10-23 22:00:0017,776,91017,902,1N5,0N00
2017-10-23 21:00:0018,574,61017,805,0N13,0N00
2017-10-23 20:00:0019,471,61017,703,8N9,1N00
2017-10-23 19:00:0021,166,31017,802,4NE7,3E80,0
2017-10-23 18:00:0022,065,11017,604,2S15,8SW250,1
2017-10-23 17:00:0023,461,11017,508,1S16,8S740,7
2017-10-23 16:00:0025,654,81017,709,2S21,9S4851,9
2017-10-23 15:00:0025,953,61018,2012,0S26,0S5772,8
2017-10-23 14:00:0026,051,41019,0011,3S23,6S6093,2
2017-10-23 13:00:0026,248,61019,807,1S18,6S5793,0
2017-10-23 12:00:0024,648,11020,405,8SE10,3E5092,3
2017-10-23 11:00:0021,354,21020,804,2E10,6E3901,3
2017-10-23 10:00:0016,567,81020,602,7E7,4E1870,3
2017-10-23 09:00:0013,875,91020,403,2E6,7SE750,0
2017-10-23 08:00:0012,780,21019,904,0E17,3SE10
2017-10-23 07:00:0012,681,51019,70,23,6E7,8E00
2017-10-23 06:00:0012,880,71019,604,2E12,2E-10
2017-10-23 05:00:0013,175,51019,604,9E9,2NE00,0
2017-10-23 04:00:0012,876,01019,902,6E9,1NE00
2017-10-23 03:00:0011,978,61020,103,1NE7,5E-10
2017-10-23 02:00:0012,577,21020,304,3N7,9N00
2017-10-23 01:00:0012,976,91020,603,1N6,4NW00
2017-10-23 00:00:0013,874,61021,002,8NE12,9NE00
2017-10-22 23:00:0014,472,11020,602,8N7,3N00
2017-10-22 22:00:0015,470,21020,003,6NW15,1NW00
2017-10-22 21:00:0017,262,01019,504,1NW6,9NW00
2017-10-22 20:00:0019,344,81019,105,0N10,3N-10
2017-10-22 19:00:0020,948,61018,404,7N11,1N130,0
2017-10-22 18:00:0022,150,91018,305,8SW14,7SW310,2
2017-10-22 17:00:0023,641,81018,507,5SW21,7SW1060,7
2017-10-22 16:00:0026,728,71019,306,6NE15,5NE5012,0
2017-10-22 15:00:0026,131,31019,906,2E17,7E5982,9
2017-10-22 14:00:0024,634,41020,708,7NE19,1NE6323,3
2017-10-22 13:00:0022,739,81021,8011,9NE26,3NE6043,0
2017-10-22 12:00:0020,745,31022,4011,6NE29,1N5312,2
2017-10-22 11:00:0018,154,61022,9012,1NE23,7NE4101,2
2017-10-22 10:00:0015,466,71023,208,3E19,8NE2130,3
2017-10-22 09:00:0013,772,31023,108,2NE17,3NE760,0
2017-10-22 08:00:0013,671,21022,509,4NE17,2NE20
2017-10-22 07:00:0014,069,61022,409,2NE20,8NE00
2017-10-22 06:00:0014,069,81022,207,8NE18,9NE00
2017-10-22 05:00:0013,871,41022,107,5N18,2N00
2017-10-22 04:00:0013,773,31022,207,1NE16,1N00
2017-10-22 03:00:0013,974,01022,405,6N11,0N00
2017-10-22 02:00:0015,070,41022,805,2NE13,2N-10
2017-10-22 01:00:0016,166,51022,608,8NE18,8NE-10
2017-10-22 00:00:0017,161,31022,4011,6NE26,3NE00
2017-10-21 23:00:0018,256,61022,1014,8N28,0NE00
2017-10-21 22:00:0018,953,61021,6013,4N33,7N00
2017-10-21 21:00:0018,463,61020,807,1N23,9N00
2017-10-21 20:00:0019,365,91020,206,4NW15,2N00
2017-10-21 19:00:0021,264,01019,4011,4NW29,4N110,0
2017-10-21 18:00:0023,660,81019,1013,0N26,0N690,2
2017-10-21 17:00:0024,557,51019,2010,5NE22,3N1220,7
2017-10-21 16:00:0026,252,61019,509,3NE20,0NE3641,8
2017-10-21 15:00:0026,351,91020,108,3NE19,3N4622,6
2017-10-21 14:00:0025,454,71021,1011,4NE22,8NE5443,2
2017-10-21 13:00:0024,359,61021,9011,9NE28,0NE5043,0
2017-10-21 12:00:0023,465,01022,308,3NE21,5E4892,3
2017-10-21 11:00:0021,475,11022,402,0E5,0SE3741,3
2017-10-21 10:00:0017,395,41022,301,7NE5,3E2250,4
2017-10-21 09:00:0015,599,11021,702,3NE5,1E930,0
2017-10-21 08:00:0015,098,81020,702,6NW6,5NW20
2017-10-21 07:00:0015,298,51020,402,7NW4,8NW00
2017-10-21 06:00:0015,798,21020,202,9NW5,9NW00
2017-10-21 05:00:0015,897,71019,903,1N6,6NW00
2017-10-21 04:00:0016,297,11019,902,0N4,8NW00
2017-10-21 03:00:0016,596,21020,002,8N6,0N00
2017-10-21 02:00:0017,095,11019,703,0N10,2N00
2017-10-21 01:00:0017,393,61019,403,0NW6,9NW00
2017-10-21 00:00:0017,891,61019,202,3NW13,2N00
2017-10-20 23:00:0018,389,91019,002,9NW8,2NW00
2017-10-20 22:00:0019,087,41018,503,4NW11,2NW00
2017-10-20 21:00:0019,884,71018,204,8NW13,4W00
2017-10-20 20:00:0021,079,91017,905,6NW12,5NW00
2017-10-20 19:00:0022,672,71017,605,9NW13,7NW90,0
2017-10-20 18:00:0024,267,01017,507,2W17,8NW470,2
2017-10-20 17:00:0025,363,61017,607,3W17,1W2100,9
2017-10-20 16:00:0026,061,71017,808,6NW18,9NW4052,1
2017-10-20 15:00:0025,565,51018,008,5NW20,7N3832,6
2017-10-20 14:00:0024,769,51018,308,2NW17,6W4473,3
2017-10-20 13:00:0023,375,21018,709,6NW22,9NW2982,3
2017-10-20 12:00:0022,181,21018,606,3NW16,1NW1861,1
2017-10-20 11:00:0021,684,91018,104,2NW11,0NW1270,5
2017-10-20 10:00:0020,390,21017,903,4NW10,6W1260,3
2017-10-20 09:00:0018,392,11017,700,7N4,1NW260,0
2017-10-20 08:00:0017,792,01017,301,2NE9,1NW10
2017-10-20 07:00:0017,592,31017,001,3SE8,2SE00
2017-10-20 06:00:0017,292,71016,801,5E3,5N00
2017-10-20 05:00:0016,993,41016,801,3E3,6E00
2017-10-20 04:00:0016,794,91017,001,8E5,5N00
2017-10-20 03:00:0016,794,21017,101,0NE3,1N00
2017-10-20 02:00:0017,094,71017,202,8NE5,9E00
2017-10-20 01:00:0016,993,91017,003,1NW7,6W00
2017-10-20 00:00:0017,492,41016,903,7W8,2SW00
2017-10-19 23:00:0017,790,31016,504,6W9,5NW00
2017-10-19 22:00:0017,788,41015,903,2W6,0W00
2017-10-19 21:00:0018,184,91015,304,0W10,0W00
2017-10-19 20:00:0019,078,81014,705,1NW13,9NW00
2017-10-19 19:00:0020,369,11013,808,3NW22,6N90,0
2017-10-19 18:00:0022,360,11013,0010,7NW25,0NW1060,2
2017-10-19 17:00:0023,257,51012,4012,3NW27,5NW2200,9
2017-10-19 16:00:0025,053,81012,6013,2NW29,3N5302,3
2017-10-19 15:00:0024,855,01012,7013,8NW31,0NW5383,2
2017-10-19 14:00:0024,757,41013,1014,0NW28,1N6033,8
2017-10-19 13:00:0023,763,81013,6015,1NW32,0N6283,6
2017-10-19 12:00:0021,176,71013,1012,5NW27,6NW4422,2
2017-10-19 11:00:0018,986,71013,00,27,8NW18,8N1690,8
2017-10-19 10:00:0017,298,81012,304,7NW15,3W830,2
2017-10-19 09:00:0017,0100,01011,506,0NW14,3N320,0
2017-10-19 08:00:0016,9100,01010,708,1NW21,2NW20
2017-10-19 07:00:0017,1100,01010,106,9NW19,4NW20
2017-10-19 06:00:0016,9100,01009,807,7NW21,8NW10
2017-10-19 05:00:0016,9100,01009,607,9NW20,9NW20
2017-10-19 04:00:0016,6100,01009,704,9W12,8W20
2017-10-19 03:00:0016,399,81009,805,4W12,0W10
2017-10-19 02:00:0017,099,41009,707,2NW22,5NW10
2017-10-19 01:00:0017,999,21009,609,8NW23,5NW10
2017-10-19 00:00:0018,898,91009,62,212,5W35,0W10
2017-10-18 23:00:0018,497,01009,92,811,0W30,4SW00
2017-10-18 22:00:0018,890,71010,30,610,3SW24,5SW00
2017-10-18 21:00:0018,783,01010,207,2SW18,9SW00
2017-10-18 20:00:0018,679,61010,504,9W12,3W00
2017-10-18 19:00:0019,276,61010,508,4W18,6W130
2017-10-18 18:00:0020,568,61010,508,9NW20,8NW670,1
2017-10-18 17:00:0021,563,21010,4011,1NW22,6NW1580,5
2017-10-18 16:00:0021,866,11010,5010,9NW24,0W2351,3
2017-10-18 15:00:0021,969,61010,809,7W29,1SW2391,5
2017-10-18 14:00:0022,472,41011,7011,5SW28,6SW4412,1
2017-10-18 13:00:0019,987,41012,208,7SW20,4W5672,8
2017-10-18 12:00:0017,498,21012,804,4W13,0W2981,4
2017-10-18 11:00:0016,498,81013,203,1W8,8W1700,6
2017-10-18 10:00:0015,799,11013,002,6NW9,5NW1150,2
2017-10-18 09:00:0015,298,81012,504,1NW9,7NW330,0
2017-10-18 08:00:0015,698,51012,02,65,2NW20,6NW20
2017-10-18 07:00:0015,798,21011,905,1W11,9NW20
2017-10-18 06:00:0015,598,11011,903,3W11,1NW20
2017-10-18 05:00:0015,497,11011,902,7NW7,0NW10
2017-10-18 04:00:0016,096,11012,305,7W13,4NW20
2017-10-18 03:00:0016,495,61012,70,26,3NW15,8NW20
2017-10-18 02:00:0017,294,11013,00,210,3W24,4W20
2017-10-18 01:00:0018,689,71013,50,48,2SW18,1SW00
2017-10-18 00:00:0019,180,61014,205,2SW16,0SW00
2017-10-17 23:00:0018,880,51014,302,2W8,0SW00
2017-10-17 22:00:0018,879,11014,102,7W6,6W00
2017-10-17 21:00:0018,977,21014,502,9W11,2W-10
2017-10-17 20:00:0019,373,51014,305,6W14,6NW00
2017-10-17 19:00:0020,565,61013,907,2W16,3W220,0
2017-10-17 18:00:0022,059,21013,9010,3W21,1W800,1
2017-10-17 17:00:0023,263,11014,1011,6SW26,8SW1550,5
2017-10-17 16:00:0025,950,51014,5011,7SW24,9W4291,6
2017-10-17 15:00:0025,753,01015,4010,8SW21,0W5112,4
2017-10-17 14:00:0024,957,11016,4010,4SW21,1S5652,8
2017-10-17 13:00:0024,956,61017,109,8SW19,0SW5202,6
2017-10-17 12:00:0023,162,51016,105,6SW17,1S4021,7
2017-10-17 11:00:0021,572,11017,602,8SE6,8SE3481,1
2017-10-17 10:00:0019,083,11017,402,5N8,7E2030,3
2017-10-17 09:00:0018,188,51016,604,4N9,2NW390,0
2017-10-17 08:00:0018,186,31016,705,1W12,6SW00
2017-10-17 07:00:0018,085,81016,204,5NW15,2NW-10
2017-10-17 06:00:0018,286,71015,907,7NW19,4NW00
2017-10-17 05:00:0018,688,81015,605,7NW15,5NW-10
2017-10-17 04:00:0019,189,31015,904,9NW16,3NW-10
2017-10-17 03:00:0019,987,81016,107,0W15,4W00
2017-10-17 02:00:0020,490,81016,307,6W17,3W00
2017-10-17 01:00:0020,794,31016,606,0SW16,4SW-10
2017-10-17 00:00:0021,094,11016,805,5SW11,4S00
2017-10-16 23:00:0021,593,41016,906,0S15,4S-10
2017-10-16 22:00:0021,692,21016,905,4S11,7S-10
2017-10-16 21:00:0021,491,21016,706,3SE14,5S-10
2017-10-16 20:00:0021,290,51016,408,4SE16,8S-10
2017-10-16 19:00:0021,688,71016,109,6SE22,3SE120
2017-10-16 18:00:0022,385,81016,2012,2SE26,4SE520,0
2017-10-16 17:00:0022,784,01016,2013,8SE31,7SE860,2
2017-10-16 16:00:0023,381,21016,4016,9SE33,7SE1610,7
2017-10-16 15:00:0023,281,01016,9016,7SE31,5SE2351,2
2017-10-16 14:00:0023,080,81017,6017,5SE31,3SE1831,1
2017-10-16 13:00:0022,681,21017,9016,1SE30,2SE1510,8
2017-10-16 12:00:0022,481,71018,0017,5SE37,1SE1380,6
2017-10-16 11:00:0022,283,41018,0017,7SE36,5SE1130,4
2017-10-16 10:00:0022,084,21017,8016,5SE33,8SE780,1
2017-10-16 09:00:0021,285,61017,308,9E24,7E300,0
2017-10-16 08:00:0020,085,91016,704,8E10,9E10
2017-10-16 07:00:0019,687,21016,504,0NE9,2E-10
2017-10-16 06:00:0019,487,71016,103,6NE7,5E00
2017-10-16 05:00:0019,686,81015,905,8NE15,5E-10
2017-10-16 04:00:0019,488,81016,007,2NE15,0NE-10
2017-10-16 03:00:0019,490,71016,406,2NE13,3E-10
2017-10-16 02:00:0019,690,71016,704,9NE10,4E-10
2017-10-16 01:00:0019,890,11017,102,9E9,9E-10
2017-10-16 00:00:0020,588,01016,804,2E16,9E-10
2017-10-15 23:00:0020,886,21016,405,0NE10,6E00
2017-10-15 22:00:0021,384,71016,204,6E10,4E00
2017-10-15 21:00:0021,980,91015,605,4SE15,0SE00
2017-10-15 20:00:0022,776,61015,008,3SE18,5SE-10
2017-10-15 19:00:0023,871,01014,7011,1SE27,1SE150,0
2017-10-15 18:00:0025,263,81014,8013,0SE28,4SE630,2
2017-10-15 17:00:0026,259,11014,7014,2E34,4SE2240,7
2017-10-15 16:00:0026,956,01014,8020,3SE45,1E4741,8
2017-10-15 15:00:0026,854,71015,4021,9SE40,9SE5682,7
2017-10-15 14:00:0026,952,51016,2019,3SE41,9SE6013,1
2017-10-15 13:00:0027,049,81016,9020,4SE39,4E5732,8
2017-10-15 12:00:0026,351,51017,3020,7SE42,1SE5002,1
2017-10-15 11:00:0025,257,21017,7015,4E38,5SE3751,2
2017-10-15 10:00:0023,957,11017,7012,2SE26,0SE2220,4
2017-10-15 09:00:0022,355,71017,3010,9SE21,6E740,0
2017-10-15 08:00:0020,156,71017,105,6E16,6SE30
2017-10-15 07:00:0019,254,01017,005,5NE12,5E-10
2017-10-15 06:00:0018,358,91017,004,3NE9,1NE-10
2017-10-15 05:00:0018,464,91016,802,8NE7,6NE00
2017-10-15 04:00:0018,768,01016,901,7E3,4E-10
2017-10-15 03:00:0018,666,31017,301,8E4,7E-10
2017-10-15 02:00:0018,961,51017,701,9NE5,4NE00
2017-10-15 01:00:0019,759,41017,902,0E6,4NE-10
2017-10-15 00:00:0020,656,21017,902,6E5,5NE-10
2017-10-14 23:00:0021,353,51017,803,4E8,5E00
2017-10-14 22:00:0022,051,91017,503,3E6,9E-10
2017-10-14 21:00:0023,547,51017,405,6E11,6NE-10
2017-10-14 20:00:0025,042,51017,105,9SE10,9SE-10
2017-10-14 19:00:0026,338,91016,805,8SE12,6SE210,0
2017-10-14 18:00:0027,933,21017,206,5SE12,7E970,2
2017-10-14 17:00:0028,930,81017,308,1SE15,5SE2320,6
2017-10-14 16:00:0028,832,91017,608,5SE17,0SE2041,0
2017-10-14 15:00:0030,133,01017,909,9SE18,0SE4682,4
2017-10-14 14:00:0029,929,81018,0012,7SE28,4S4362,5
2017-10-14 13:00:0029,330,51018,4011,4SE23,9SE4162,3
2017-10-14 12:00:0027,935,71018,708,9SE21,1SE2941,5
2017-10-14 11:00:0025,249,81018,803,8E12,9E2820,9
2017-10-14 10:00:0021,862,81018,702,3E7,0E1740,3
2017-10-14 09:00:0019,371,41018,401,5E5,0NE440,0
2017-10-14 08:00:0019,270,31018,303,3E12,6E10
2017-10-14 07:00:0019,270,31018,201,9NE6,4NE-10
2017-10-14 06:00:0019,270,11018,002,2E5,9NE-10
2017-10-14 05:00:0019,469,71018,003,3E10,5NE-10
2017-10-14 04:00:0019,471,11018,102,7NE8,5E00
2017-10-14 03:00:0019,672,81018,303,7E14,8S-10
2017-10-14 02:00:0019,871,41018,502,8E8,0E-10
2017-10-14 01:00:0020,167,91018,701,2N3,0N-10
2017-10-14 00:00:0020,467,01018,702,1SW4,9NW-10
2017-10-13 23:00:0020,866,71018,501,7NE8,6NE00
2017-10-13 22:00:0020,669,21018,302,6E6,7E00
2017-10-13 21:00:0020,568,41018,202,7NE11,5NW-10
2017-10-13 20:00:0021,267,01018,002,9NW4,9W00
2017-10-13 19:00:0023,161,21017,903,6SW14,5SW150,0
2017-10-13 18:00:0025,153,61017,905,3SW11,1SW770,2
2017-10-13 17:00:0026,749,01018,107,2SW14,1SW2630,7
2017-10-13 16:00:0029,343,41018,508,5SW17,0SW4761,8
2017-10-13 15:00:0028,844,31018,809,1S18,2S5052,4
2017-10-13 14:00:0028,147,61019,508,9S22,0SW4582,5
2017-10-13 13:00:0027,949,11020,304,9S12,4S5202,6
2017-10-13 12:00:0025,259,61020,904,2E8,7E4421,9
2017-10-13 11:00:0021,569,31021,002,5E6,6E2420,9
2017-10-13 10:00:0018,378,71020,902,7E6,1E2070,3
2017-10-13 09:00:0015,689,51020,702,7NE11,3NE660,0
2017-10-13 08:00:0014,992,31019,901,4E3,7NE30
2017-10-13 07:00:0015,192,61019,702,4NE5,0NE00
2017-10-13 06:00:0015,491,81019,703,5NE7,6N00
2017-10-13 05:00:0015,891,01019,203,5N7,1N00
2017-10-13 04:00:0015,989,11019,301,9NE6,9N-10
2017-10-13 03:00:0016,386,91019,502,7NE9,3NE00
2017-10-13 02:00:0016,784,91019,403,7NE7,2NE-10
2017-10-13 01:00:0017,182,61019,204,8N9,5N00
2017-10-13 00:00:0017,580,51019,405,1N15,6N00
2017-10-12 23:00:0018,579,51019,302,5N6,6N00
2017-10-12 22:00:0019,277,21018,603,0N9,6N00
2017-10-12 21:00:0020,473,31018,104,1NW8,8NW00
2017-10-12 20:00:0021,673,51017,805,2NW13,5NW00
2017-10-12 19:00:0023,273,91017,704,5SW12,5SW190,0
2017-10-12 18:00:0025,259,11017,606,4SW12,9SW560,2
2017-10-12 17:00:0027,048,01017,706,4SW12,0S2790,8
2017-10-12 16:00:0028,846,01018,008,4SW15,4SW5071,9
2017-10-12 15:00:0027,656,61018,209,2SW18,2SW5942,7
2017-10-12 14:00:0027,458,11018,609,6SW18,0S6203,0
2017-10-12 13:00:0026,263,51019,1010,7S19,8S5912,8
2017-10-12 12:00:0025,367,51019,307,8S14,7S5182,1
2017-10-12 11:00:0023,966,81019,304,0SE19,5S3961,2
2017-10-12 10:00:0021,079,91018,902,6E6,8NE2410,4
2017-10-12 09:00:0019,183,01018,302,2E4,6E710,0
2017-10-12 08:00:0019,181,21017,901,0N3,5NW10
2017-10-12 07:00:0018,879,61017,901,7SE4,6E-10
2017-10-12 06:00:0017,582,81017,701,3NE6,6SE-10
2017-10-12 05:00:0016,982,91017,301,6NE5,4N00
2017-10-12 04:00:0017,578,81016,601,9N5,1W-10
2017-10-12 03:00:0018,476,11016,603,7E8,3E-10
2017-10-12 02:00:0018,975,11016,903,8E7,6E00
2017-10-12 01:00:0019,872,81016,904,1E8,3SE-10
2017-10-12 00:00:0020,474,11016,903,9E8,7E00
2017-10-11 23:00:0020,973,21016,705,2E11,0E-10
2017-10-11 22:00:0021,372,81016,504,1SE8,2E-10
2017-10-11 21:00:0022,867,21015,805,5SW12,6SW-10
2017-10-11 20:00:0024,845,71014,704,9E11,6E00
2017-10-11 19:00:0026,541,41014,509,0E17,9E320,0
2017-10-11 18:00:0027,537,91014,7012,5SE24,6SE990,2
2017-10-11 17:00:0028,936,41014,3011,5SE23,9SE3460,8
2017-10-11 16:00:0028,537,41014,5012,8SE24,8SE3121,3
2017-10-11 15:00:0030,633,11015,4013,1SE27,4SE5342,4
2017-10-11 14:00:0030,434,91016,1010,9SE22,1SE5872,8
2017-10-11 13:00:0029,538,81016,908,9SE19,5SE6052,8
2017-10-11 12:00:0028,335,01017,4013,5SE26,8SE5252,1
2017-10-11 11:00:0025,344,71017,605,8E13,1SE3881,2
2017-10-11 10:00:0020,561,41017,602,0E6,8NE2570,4
2017-10-11 09:00:0015,874,91017,402,0E8,9NE960,0
2017-10-11 08:00:0014,879,91016,703,8E10,5SE40
2017-10-11 07:00:0014,278,71016,303,9E9,5E00
2017-10-11 06:00:0014,479,21016,202,3E6,7NE00
2017-10-11 05:00:0014,777,41016,302,9E7,1E00
2017-10-11 04:00:0014,776,51016,503,8E9,1E-10
2017-10-11 03:00:0014,879,41016,502,6E5,9NE00
2017-10-11 02:00:0015,676,11016,502,5E9,8SE00
2017-10-11 01:00:0016,177,81016,502,7E6,7E00
2017-10-11 00:00:0017,076,51016,603,2E5,3E-10
2017-10-10 23:00:0017,479,71016,402,8E6,9NE00
2017-10-10 22:00:0018,279,11015,901,3E3,2E-10
2017-10-10 21:00:0019,376,71015,101,9N5,0N-10
2017-10-10 20:00:0020,672,21014,601,3SE3,7S00
2017-10-10 19:00:0022,865,41014,103,5SE9,5SE200,0
2017-10-10 18:00:0024,460,71013,706,6S16,9S640,2
2017-10-10 17:00:0027,047,71013,809,3S23,5S3050,8
2017-10-10 16:00:0028,643,31014,308,1S15,0S5141,8
2017-10-10 15:00:0027,947,01014,809,2S17,1S6112,7
2017-10-10 14:00:0027,552,01015,508,8S17,8S6453,0
2017-10-10 13:00:0027,844,71016,209,7S21,3S6142,8
2017-10-10 12:00:0026,645,21016,604,7SE13,3SW5392,1
2017-10-10 11:00:0022,951,71016,604,3E11,8NE4111,2
2017-10-10 10:00:0017,553,91016,803,2E8,6E2560,4
2017-10-10 09:00:0013,460,41016,603,1E9,9NE960,0
2017-10-10 08:00:0012,066,81016,103,5E7,6E40
2017-10-10 07:00:0011,872,41015,603,3E9,2E00
2017-10-10 06:00:0012,774,71015,403,6NE8,7E00
2017-10-10 05:00:0012,466,41015,102,1SE5,8NE00
2017-10-10 04:00:0012,666,11015,201,7E4,4NE-10
2017-10-10 03:00:0013,070,41015,401,9E4,3E-10
2017-10-10 02:00:0014,176,41015,301,5NE4,3E-10
2017-10-10 01:00:0015,280,81015,102,7N6,1N-10
2017-10-10 00:00:0016,179,21015,301,1NE4,2N-10
2017-10-09 23:00:0017,476,71015,002,6E5,4NE-10
2017-10-09 22:00:0018,477,01014,802,5NE7,6E-10
2017-10-09 21:00:0019,574,41014,201,7NE6,6NE-10
2017-10-09 20:00:0021,268,01013,503,1W13,2SW00
2017-10-09 19:00:0023,357,01013,107,1SW16,2SW240,0
2017-10-09 18:00:0024,953,31013,1010,3SW19,6SW620,2
2017-10-09 17:00:0027,046,91013,507,7S15,4SW3250,9
2017-10-09 16:00:0029,242,01014,0011,7SW19,2SW5412,1
2017-10-09 15:00:0029,345,41014,708,9S17,6SW6292,9
2017-10-09 14:00:0028,149,71015,408,9S16,0S6543,3
2017-10-09 13:00:0029,139,61016,207,7S21,7S6193,0
2017-10-09 12:00:0027,742,51016,605,1S11,8S5382,3
2017-10-09 11:00:0024,652,31016,702,6SE6,4SE4161,3
2017-10-09 10:00:0020,668,21016,702,3E10,4E2590,4
2017-10-09 09:00:0016,386,11016,301,8N5,3NE1010,0
2017-10-09 08:00:0015,188,71015,602,4N5,9N50
2017-10-09 07:00:0015,488,81015,503,2NE7,2N-10
2017-10-09 06:00:0015,786,41015,402,2NE5,8E00
2017-10-09 05:00:0015,985,51015,202,9NE6,3NE00
2017-10-09 04:00:0015,885,71015,502,5E5,6E00
2017-10-09 03:00:0016,485,81015,701,8E3,8NE00
2017-10-09 02:00:0016,986,01015,602,4N4,6N00
2017-10-09 01:00:0017,884,31015,702,1NE9,7SE00
2017-10-09 00:00:0018,383,81015,902,3E5,4E00
2017-10-08 23:00:0018,983,31015,501,1N9,0W00
2017-10-08 22:00:0019,780,21015,102,4NW12,8N-10
2017-10-08 21:00:0020,477,41014,703,0NW6,1NW00
2017-10-08 20:00:0021,672,21014,302,0SW5,5SW00
2017-10-08 19:00:0023,366,61014,205,0SE11,9S170,0
2017-10-08 18:00:0024,463,41013,906,7S14,8S600,3
2017-10-08 17:00:0025,560,91014,108,6S17,7SE3241,0
2017-10-08 16:00:0026,258,41014,7012,6SE25,2SE5342,2
2017-10-08 15:00:0027,554,41015,1014,8S28,2SE6263,1
2017-10-08 14:00:0028,051,91015,8015,5S28,2S6573,5
2017-10-08 13:00:0027,750,81016,4011,4SE21,6SE6203,3
2017-10-08 12:00:0026,356,21016,6011,5SE21,4SE5452,5
2017-10-08 11:00:0024,263,11016,609,8E22,0E4211,4
2017-10-08 10:00:0021,772,81016,507,3E14,0NE2680,5
2017-10-08 09:00:0017,688,21016,304,3NE9,7NE1080,0
2017-10-08 08:00:0016,391,41015,804,6NE11,1NE50
2017-10-08 07:00:0016,193,71015,604,3NE11,4NE-10
2017-10-08 06:00:0016,093,81015,403,9NE12,6NE00
2017-10-08 05:00:0016,192,71015,201,9NE5,2NE00
2017-10-08 04:00:0016,590,81015,102,5E6,3NE-10
2017-10-08 03:00:0016,988,61014,902,4E9,4SE-10
2017-10-08 02:00:0017,487,81014,903,0E6,2E-10
2017-10-08 01:00:0017,887,61014,802,6E5,7E-10
2017-10-08 00:00:0018,387,71014,802,4E5,0E00
2017-10-07 23:00:0019,385,41014,501,9NE12,0NE-10
2017-10-07 22:00:0020,184,11014,003,0NE6,6NE-10
2017-10-07 21:00:0020,682,11013,603,8E9,1SE-10
2017-10-07 20:00:0021,279,91013,304,0SE10,1SE10
2017-10-07 19:00:0022,476,61012,705,5SE14,8S200,0
2017-10-07 18:00:0023,279,91012,1011,2S24,4SE750,3
2017-10-07 17:00:0025,667,01012,0010,4S21,2SE3281,1
2017-10-07 16:00:0027,553,41012,2011,3S26,6S5432,4
2017-10-07 15:00:0029,150,21012,809,4S17,7S6333,3
2017-10-07 14:00:0028,448,31013,309,6S17,4S6603,6
2017-10-07 13:00:0028,945,01013,709,8S16,6SE6323,4
2017-10-07 12:00:0028,642,81013,907,7S16,1S5592,6
2017-10-07 11:00:0025,840,81014,002,9E7,2S4301,5
2017-10-07 10:00:0022,051,01013,901,9E5,3SE2740,6
2017-10-07 09:00:0017,168,71013,603,8SE7,3E1150,1
2017-10-07 08:00:0015,382,31013,203,2E10,3SE50
2017-10-07 07:00:0015,687,41013,102,6NE5,9NE-10
2017-10-07 06:00:0016,085,71012,803,1N7,3N-10
2017-10-07 05:00:0016,184,51012,801,9NE12,2N-10
2017-10-07 04:00:0016,380,91012,701,3SE3,3SE-10
2017-10-07 03:00:0016,781,61012,802,0W4,4SW00
2017-10-07 02:00:0017,181,81013,001,9S5,9NW-10
2017-10-07 01:00:0017,576,71013,201,3N8,7NW00
2017-10-07 00:00:0018,275,91013,601,7NW4,0NW-10
2017-10-06 23:00:0018,874,91013,701,7NE9,7N-10
2017-10-06 22:00:0019,674,81013,202,6N6,5N00
2017-10-06 21:00:0020,570,11013,301,7E4,0E-10
2017-10-06 20:00:0021,765,61012,801,8SW8,9W10
2017-10-06 19:00:0023,460,81012,605,3W11,2W140,0
2017-10-06 18:00:0025,351,51012,806,5SW13,1SW700,3
2017-10-06 17:00:0028,241,21013,108,1S15,1S3511,3
2017-10-06 16:00:0029,637,71013,707,5S16,6S5682,6
2017-10-06 15:00:0030,136,81014,408,2S16,4S6593,6
2017-10-06 14:00:0029,336,21015,1010,3S22,2SE6894,0
2017-10-06 13:00:0029,435,81015,8010,3S18,8SW6543,7
2017-10-06 12:00:0028,538,51016,207,0S16,4S5742,8
2017-10-06 11:00:0026,046,01016,301,9E6,9SE4431,7
2017-10-06 10:00:0021,957,81015,901,8E6,1NE2840,6
2017-10-06 09:00:0017,172,71015,802,1E4,8NE1240,1
2017-10-06 08:00:0015,878,21015,601,7NE4,2NE50
2017-10-06 07:00:0016,276,11015,301,6E2,8SE-10
2017-10-06 06:00:0017,072,61014,900,9E3,2S-10
2017-10-06 05:00:0018,268,81014,903,8NE9,3E-10
2017-10-06 04:00:0017,779,81014,803,4E11,3NE00
2017-10-06 03:00:0018,080,81015,001,7SE4,6E00
2017-10-06 02:00:0018,275,41014,901,8SW5,5SW-10
2017-10-06 01:00:0019,174,11015,201,4S5,2SE00
2017-10-06 00:00:0019,766,91015,101,7W4,2NW00
2017-10-05 23:00:0020,566,61015,102,9N6,3NW-10
2017-10-05 22:00:0020,868,51014,703,9N7,2NW-10
2017-10-05 21:00:0021,571,91014,404,2N8,1N00
2017-10-05 20:00:0022,371,71013,902,1SE6,4SE10
2017-10-05 19:00:0024,060,81013,706,9SW15,3SW160,0
2017-10-05 18:00:0025,452,81014,008,7SW16,5SW710,3
2017-10-05 17:00:0027,448,81014,609,9SW17,4SW3421,3
2017-10-05 16:00:0028,646,91015,208,9SW17,9SW5582,6
2017-10-05 15:00:0027,751,41016010,0S23,9SE6463,5
2017-10-05 14:00:0027,751,71016,5010,8S24,3S6743,9
2017-10-05 13:00:0027,549,41017,0013,1S25,6S6403,6
2017-10-05 12:00:0029,840,21017,309,2SE21,6E5652,8
2017-10-05 11:00:0027,444,71017,309,2NE20,1NE4381,6
2017-10-05 10:00:0022,962,01017,404,7NE11,9NE2810,6
2017-10-05 09:00:0018,576,51017,202,6E6,8SE1220,1
2017-10-05 08:00:0017,281,71017,302,1E5,3NE50
2017-10-05 07:00:0017,083,01017,302,1E5,4NE-10
2017-10-05 06:00:0017,480,91017,102,2E5,1E00
2017-10-05 05:00:0017,681,11016,901,5NE5,1NE00
2017-10-05 04:00:0018,080,31016,801,7NE4,0N-10
2017-10-05 03:00:0018,679,61017,202,0NE6,4NE-10
2017-10-05 02:00:0019,176,21017,201,4SE4,5NE-10
2017-10-05 01:00:0019,973,31017,103,1NE8,8NE00
2017-10-05 00:00:0020,374,71016,903,6NE14,0NE-10
2017-10-04 23:00:0021,174,11017,003,4NE7,5E-10
2017-10-04 22:00:0021,873,01017,002,5NE10,6NE-10
2017-10-04 21:00:0022,570,91016,503,1NE8,8E-10
2017-10-04 20:00:0023,367,61015,802,3SE10,2SE10
2017-10-04 19:00:0024,761,51015,509,1S19,3S150,0
2017-10-04 18:00:0026,554,31015,209,8S21,4S700,3
2017-10-04 17:00:0029,345,61015,6010,6SE21,1S3481,4
2017-10-04 16:00:0029,743,91015,9015,0SE29,0SE5632,7
2017-10-04 15:00:0029,146,61016,6015,3SE31,7E6523,7
2017-10-04 14:00:0028,648,61017,2013,1SE36,0S6804,1
2017-10-04 13:00:0027,950,91017,6013,1SE25,5SE6463,7
2017-10-04 12:00:0027,253,01017,9012,5SE28,1SE5692,8
2017-10-04 11:00:0026,255,71017,809,2E27,3SE4421,7
2017-10-04 10:00:0022,962,81017,804,7NE13,0E2860,7
2017-10-04 09:00:0018,176,91017,402,8E7,7E1260,1
2017-10-04 08:00:0016,781,91016,702,2NE6,6E50
2017-10-04 07:00:0016,881,81016,102,6E6,5E-10
2017-10-04 06:00:0017,180,61015,802,7E12,2E00
2017-10-04 05:00:0017,679,11015,502,9E7,6SE-10
2017-10-04 04:00:0017,977,51015,602,6E5,4NE-10
2017-10-04 03:00:0018,675,41015,802,4E6,5NE-10
2017-10-04 02:00:0019,472,71015,802,2E5,7NE-10
2017-10-04 01:00:0020,070,31016,002,4NE7,6NE-10
2017-10-04 00:00:0020,966,51016,003,4E7,6E-10
2017-10-03 23:00:0021,265,11015,504,2SE8,9SE00
2017-10-03 22:00:0021,864,81015,202,5E10,4E-10
2017-10-03 21:00:0023,160,01014,304,1N10,6NW00
2017-10-03 20:00:0024,655,01013,506,0NW13,1NW10
2017-10-03 19:00:0025,252,91013,505,6SW14,0SW160,0
2017-10-03 18:00:0026,150,31013,509,1SW17,2SW730,4
2017-10-03 17:00:0029,142,91014,008,3S18,4SW3471,5
2017-10-03 16:00:0031,536,41014,609,8S17,0S5642,8
2017-10-03 15:00:0030,937,81015,309,2S18,1SE6533,8
2017-10-03 14:00:0029,442,91016,2010,3S20,2S6814,3
2017-10-03 13:00:0029,443,31017,2010,8S20,8S6484,0
2017-10-03 12:00:0028,844,31017,508,9S15,3S5723,0
2017-10-03 11:00:0026,353,11017,506,5E14,7SE4451,8
2017-10-03 10:00:0022,965,11017,302,0E5,5E2870,7
2017-10-03 09:00:0018,480,71016,901,5E3,4E1280,1
2017-10-03 08:00:0016,885,41016,501,4NE3,6E50
2017-10-03 07:00:0017,183,71016,101,0NE7,9NE-10
2017-10-03 06:00:0017,582,71015,902,1E3,9E00
2017-10-03 05:00:0018,181,31015,801,7E4,7NE-10
2017-10-03 04:00:0018,678,51015,902,0E5,0NE-10
2017-10-03 03:00:0019,176,71016,302,2NE7,2N00
2017-10-03 02:00:0019,874,81016,502,1NE4,6NE00
2017-10-03 01:00:0020,672,11016,503,6E8,8SE-10
2017-10-03 00:00:0020,870,31016,303,1E7,7E-10
2017-10-02 23:00:0021,965,41016,104,4E8,0E-10
2017-10-02 22:00:0021,959,21015,504,1E10,8E-10
2017-10-02 21:00:0023,453,51014,706,4NW19,1NW00
2017-10-02 20:00:0025,447,11014,509,7W18,8NW10
2017-10-02 19:00:0027,146,21014,407,6W15,8SW170,0
2017-10-02 18:00:0028,443,31014,509,6SW18,0SW660,4
2017-10-02 17:00:0030,439,41015,0010,8SW21,3SW3501,5
2017-10-02 16:00:0032,235,51015,507,5SW14,8S5672,8
2017-10-02 15:00:0031,140,11016,007,6SW14,2SW6593,8
2017-10-02 14:00:0029,345,11016,408,7SW16,0S6824,3
2017-10-02 13:00:0029,045,51016,909,2S18,2SE6544,0
2017-10-02 12:00:0028,347,31017,408,8S21,2S5773,1
2017-10-02 11:00:0026,451,71017,706,0SE12,1SE4471,8
2017-10-02 10:00:0023,859,61017,704,5E10,3E2880,7
2017-10-02 09:00:0020,067,11017,302,0NE5,5NE1310,1
2017-10-02 08:00:0018,666,61016,804,0NE9,0E70
2017-10-02 07:00:0018,864,81016,203,3NE8,3N-10
2017-10-02 06:00:0019,760,31015,804,2E9,7SE-10
2017-10-02 05:00:0019,561,71015,406,2SE15,2SE00
2017-10-02 04:00:0019,363,41015,004,4E7,0E-10
2017-10-02 03:00:0020,259,11014,902,8E9,6NE-10
2017-10-02 02:00:0019,262,01014,804,6N18,1NE-10
2017-10-02 01:00:0019,163,81014,503,8N6,1N00
2017-10-02 00:00:0019,562,41014,803,6N6,0NW-10
2017-10-01 23:00:0019,961,21014,902,6N7,9N00
2017-10-01 22:00:0020,758,91015,001,8NE4,2E-10
2017-10-01 21:00:0021,855,31014,101,7N4,3N-10
2017-10-01 20:00:0023,450,41013,901,3SE11,0NW10
2017-10-01 19:00:0025,444,51013,802,5S10,2SW450,0
2017-10-01 18:00:0026,940,41013,506,4SW12,2SW1330,4
2017-10-01 17:00:0028,537,01013,709,4SW18,4SW3121,4
2017-10-01 16:00:0029,936,81014,1011,7SW19,9SW5602,9
2017-10-01 15:00:0031,334,71014,7010,7SW19,8SW6343,8
2017-10-01 14:00:0031,133,31015,306,9SE15,6S6414,2
2017-10-01 13:00:0029,735,61015,806,6E15,5NE6253,9
2017-10-01 12:00:0027,439,71016,107,3NE15,4NE5703,1
2017-10-01 11:00:0025,045,21015,908,6NE20,6NE4231,8
2017-10-01 10:00:0022,152,21015,9011,3NE20,6NE2720,7
2017-10-01 09:00:0018,962,11015,609,8E22,9NE1320,1
2017-10-01 08:00:0017,864,01015,308,3NE16,8NE60
2017-10-01 07:00:0017,163,81015,106,8NE14,8E-10
2017-10-01 06:00:0017,959,91014,807,6E22,5NE-10
2017-10-01 05:00:0017,857,21014,607,0NE17,1NE-10
2017-10-01 04:00:0018,253,91014,507,5NE20,8N00
2017-10-01 03:00:0018,851,01015,0012,7NE25,3N-10
2017-10-01 02:00:0019,347,21015,409,6NE27,1NE-10
2017-10-01 01:00:0018,750,91015,405,3N16,6N00
2017-10-01 00:00:0018,559,11015,201,9N7,2NW-10
2017-09-30 23:00:0018,861,31015,001,9NW10,4W00
2017-09-30 22:00:0020,057,91014,702,6NW5,7W-10
2017-09-30 21:00:0021,753,11014,105,0NW14,4NW-10
2017-09-30 20:00:0023,154,31013,708,4NW18,2NW30
2017-09-30 19:00:0025,250,71013,3010,7NW22,3N520,0
2017-09-30 18:00:0026,847,51013,1012,8NW24,7NW1200,4
2017-09-30 17:00:0029,642,31013,4012,2W25,2NW3461,5
2017-09-30 16:00:0031,041,11014,109,7W24,1NW5142,7
2017-09-30 15:00:0030,841,11015,007,3W17,2SW5233,3
2017-09-30 14:00:0029,245,91015,9010,1SW21,8SW5693,7
2017-09-30 13:00:0028,845,51016,907,3S15,6SW5073,3
2017-09-30 12:00:0027,149,61017,605,0N13,3N5352,8
2017-09-30 11:00:0024,659,61017,906,1NE14,6N4151,6
2017-09-30 10:00:0021,572,21017,806,6NE13,4NE2740,6
2017-09-30 09:00:0019,082,01017,908,2E17,5E1250,1
2017-09-30 08:00:0018,183,11017,706,5E16,9NE80
2017-09-30 07:00:0017,178,91017,003,9S7,7SW-10
2017-09-30 06:00:0017,075,31016,502,2S13,4SW-10
2017-09-30 05:00:0017,073,11016,301,3S3,8SW-10
2017-09-30 04:00:0017,271,61016,100,2SW10,4SE-10
2017-09-30 03:00:0017,771,41016,200,7W6,9E00
2017-09-30 02:00:0018,370,41016,300,5E9,0NE-10
2017-09-30 01:00:0018,768,91016,400,8N2,4NE-10
2017-09-30 00:00:0019,367,71016,501,0NE3,6E-10
2017-09-29 23:00:0020,060,21016,601,1E5,0E00
2017-09-29 22:00:0020,653,21016,202,2SW6,8SW-10
2017-09-29 21:00:0021,450,61015,702,4NW6,8N00
2017-09-29 20:00:0022,350,61015,403,6W8,7NW20
2017-09-29 19:00:0023,945,81015,405,3SW9,9SW240,0
2017-09-29 18:00:0025,243,31015,407,6SW16,2S990,4
2017-09-29 17:00:0027,341,21015,608,6SW17,0SW3921,5
2017-09-29 16:00:0028,142,61016,109,7S21,8SW5542,7
2017-09-29 15:00:0027,743,41016,4011,4S21,1S6553,7
2017-09-29 14:00:0027,443,31017,0011,9S25,0S6804,1
2017-09-29 13:00:0030,932,61017,6010,1SE25,0SW6493,8
2017-09-29 12:00:0029,633,31018,106,9NE14,4NE5712,9
2017-09-29 11:00:0026,840,61018,304,2NE12,3N4421,7
2017-09-29 10:00:0022,951,91018,201,6E5,3E2800,7
2017-09-29 09:00:0018,067,91018,102,6NE5,3E1250,1
2017-09-29 08:00:0016,670,11017,901,5NE7,8NE80
2017-09-29 07:00:0016,670,11017,405,2N9,4N00
2017-09-29 06:00:0016,770,11017,302,0NE5,6N-10
2017-09-29 05:00:0017,269,41017,104,6N8,7N00
2017-09-29 04:00:0017,868,81017,403,2NE7,3E-10
2017-09-29 03:00:0017,967,71017,502,5E7,7NE00
2017-09-29 02:00:0018,867,21017,701,8NE7,5E-10,0
2017-09-29 01:00:0019,569,01017,702,4E4,5E-10
2017-09-29 00:00:0019,867,41017,702,4E5,0E00
2017-09-28 23:00:0020,861,31017,602,8N6,2N-10
2017-09-28 22:00:0021,858,41016,905,7NW16,0N00
2017-09-28 21:00:0022,458,21016,405,4NW13,3NW00
2017-09-28 20:00:0023,855,31015,806,6NW17,8NW30
2017-09-28 19:00:0025,152,11015,705,1W13,8SW240,0
2017-09-28 18:00:0025,954,91015,806,3W15,2W970,4
2017-09-28 17:00:0028,446,71016,007,5SW16,8SW4121,5
2017-09-28 16:00:0029,444,71016,4011,7S25,4S5692,8
2017-09-28 15:00:0028,648,11016,9011,5S22,2SE6563,8
2017-09-28 14:00:0029,245,61017,4011,7S21,5S6844,2
2017-09-28 13:00:0029,242,91017,8011,0S22,0S6483,8
2017-09-28 12:00:0028,243,41018,009,3S18,9S5692,9
2017-09-28 11:00:0026,450,31018,105,6SE15,6S4411,7
2017-09-28 10:00:0023,562,31017,902,6E8,5E2690,7
2017-09-28 09:00:0019,974,91017,602,2NE5,9E1130,1
2017-09-28 08:00:0019,177,01017,103,9E8,4E90
2017-09-28 07:00:0019,775,61016,705,0E11,5E-10
2017-09-28 06:00:0020,271,31016,504,8E10,5E-10
2017-09-28 05:00:0020,159,61016,402,9E8,9E00
2017-09-28 04:00:0020,253,91016,300,9E10,3N-10
2017-09-28 03:00:0020,252,91016,302,6N6,6N00
2017-09-28 02:00:0020,549,91016,701,3NE3,8SE-10
2017-09-28 01:00:0021,645,91016,403,6N10,0E00
2017-09-28 00:00:0021,841,31016,403,6NW6,7NW00
2017-09-27 23:00:0021,939,61016,603,3N12,1NW00
2017-09-27 22:00:0022,137,51016,404,2NW9,2N00
2017-09-27 21:00:0022,151,21015,705,1NW15,0NW-10
2017-09-27 20:00:0022,564,31015,103,3W12,7SW60
2017-09-27 19:00:0023,960,61014,705,1SW15,5S520,0
2017-09-27 18:00:0024,759,81014,407,2S15,4SW1350,4
2017-09-27 17:00:0026,650,21014,509,0S17,8S4071,5
2017-09-27 16:00:0027,943,81014,9010,3S18,7S5862,9
2017-09-27 15:00:0027,048,01015,1013,3S23,4SE6763,9
2017-09-27 14:00:0026,750,31015,6015,2S27,7SE7204,3
2017-09-27 13:00:0026,154,91015,9012,3SE26,9SE6653,9
2017-09-27 12:00:0025,748,21016,308,3SE15,3SE5893,0
2017-09-27 11:00:0024,146,31016,306,5E14,3S4541,8
2017-09-27 10:00:0021,645,21016,204,5NE9,4E3000,7
2017-09-27 09:00:0017,855,31016,004,5NE8,7NE1200,1
2017-09-27 08:00:0017,258,51015,402,9SE7,6E50
2017-09-27 07:00:0017,155,91014,704,0E9,1SE00
2017-09-27 06:00:0017,254,51014,602,2NE5,3NW00
2017-09-27 05:00:0017,454,81014,302,5NW6,0NW00
2017-09-27 04:00:0017,554,31014,201,8W5,9W-10
2017-09-27 03:00:0017,753,11014,400,7NE2,9NE00
2017-09-27 02:00:0017,853,11014,401,3E3,8N00
2017-09-27 01:00:0018,251,51014,301,1N3,4NW00
2017-09-27 00:00:0018,948,01014,501,4NE4,0NE00
2017-09-26 23:00:0019,643,71014,302,1NW15,0N00
2017-09-26 22:00:0020,342,01014,104,3NW13,1N00
2017-09-26 21:00:0021,638,91013,405,2NW11,5NW-10
2017-09-26 20:00:0023,037,01012,607,6NW17,2NW90
2017-09-26 19:00:0025,532,91012,3010,5NW25,2NW640,0
2017-09-26 18:00:0027,136,31012,2011,1NW23,6NW1260,4
2017-09-26 17:00:0029,830,81012,7010,1W28,7NW3831,4
2017-09-26 16:00:0031,431,71013,407,9W19,1NW6412,8
2017-09-26 15:00:0029,233,81014,608,3SW18,3SW7073,7
2017-09-26 14:00:0028,032,71015,209,5SW19,4SW7524,2
2017-09-26 13:00:0027,032,41015,906,3SW14,6SW7223,9
2017-09-26 12:00:0023,838,41016,703,6S10,2SW6403,0
2017-09-26 11:00:0021,548,81017,108,4SW16,2SW5061,7
2017-09-26 10:00:0020,154,71017,207,8SW14,4SW3360,7
2017-09-26 09:00:0015,270,01017,204,5SW14,7SW1640,1
2017-09-26 08:00:0013,175,11017,202,1S5,9S130
2017-09-26 07:00:0012,968,81016,803,3SW9,3SW00
2017-09-26 06:00:0013,665,21016,801,3NE7,2NE00
2017-09-26 05:00:0014,462,81017,002,7E6,8E00
2017-09-26 04:00:0014,766,51017,202,8E6,7NE00
2017-09-26 03:00:0015,666,31017,402,1S5,6SW-10
2017-09-26 02:00:0016,762,81017,003,1NW6,1NW00
2017-09-26 01:00:0017,959,41017,203,2NW16,8NW-10
2017-09-26 00:00:0019,157,81017,104,8NW11,1NW00
2017-09-25 23:00:0019,859,41016,905,5NW12,9NW-10
2017-09-25 22:00:0020,857,51016,508,2NW18,8NW-10
2017-09-25 21:00:0021,456,51015,8011,9NW24,4NW00
2017-09-25 20:00:0023,151,61015,0014,5NW32,1NW30
2017-09-25 19:00:0025,846,41014,8014,3NW26,2NW200,0
2017-09-25 18:00:0029,138,91014,5012,2NW26,3N1290,4
2017-09-25 17:00:0031,932,81015,108,7W25,3NW4581,6
2017-09-25 16:00:0030,839,31016,009,9SW18,6SW6042,9
2017-09-25 15:00:0029,844,41016,7011,3SW25,1SW6933,9
2017-09-25 14:00:0029,444,61017,5010,9SW22,9W7174,3
2017-09-25 13:00:0028,138,81018,004,6NW11,5N5943,7
2017-09-25 12:00:0025,943,01018,506,7NE21,9E4832,6
2017-09-25 11:00:0023,951,31018,605,1E19,0NE2761,3
2017-09-25 10:00:0021,966,71018,704,8NE20,7NE2630,7
2017-09-25 09:00:0018,182,71018,402,5E7,4E1160,1
2017-09-25 08:00:0016,480,31018,101,7S10,0SE120
2017-09-25 07:00:0015,671,81017,801,1S4,7N00
2017-09-25 06:00:0015,466,31017,602,1W6,3S00
2017-09-25 05:00:0015,354,01017,501,1NW5,5NW00
2017-09-25 04:00:0015,545,61017,401,5W3,4NW00
2017-09-25 03:00:0015,641,71017,501,8N5,0NW00
2017-09-25 02:00:0016,441,11017,503,1NW7,5N00
2017-09-25 01:00:0017,153,11017,401,7SW4,7S-10
2017-09-25 00:00:0018,558,61017,401,4E4,2E00
2017-09-24 23:00:0019,937,31017,203,5NE9,4NW-10
2017-09-24 22:00:0021,731,91016,707,5NW19,9NW-10
2017-09-24 21:00:0022,842,31016,109,4NW20,0NW00
2017-09-24 20:00:0024,042,41015,509,5NW21,8NW40
2017-09-24 19:00:0025,640,11015,2011,8NW27,5NW220,0
2017-09-24 18:00:0027,339,21015,3012,3NW26,9NW1450,5
2017-09-24 17:00:0029,043,91015,9011,9W26,2W4721,6
2017-09-24 16:00:0028,948,41016,6013,6SW30,4SW6062,8
2017-09-24 15:00:0028,149,91017,1014,5SW25,4SW6943,8
2017-09-24 14:00:0028,051,81017,3013,4SW23,5S7234,1
2017-09-24 13:00:0027,652,11017,609,2SW16,5S6933,8
2017-09-24 12:00:0026,455,91017,807,8SW19,2S6092,9
2017-09-24 11:00:0024,652,01018,003,8SE10,1S4771,7
2017-09-24 10:00:0021,360,81017,902,1E10,4E3110,7
2017-09-24 09:00:0016,975,61017,802,1E5,4NE1420,1
2017-09-24 08:00:0014,884,31017,301,7N7,1NE140
2017-09-24 07:00:0015,182,61016,902,3N4,7NW00
2017-09-24 06:00:0015,780,21016,301,2N2,7N-10
2017-09-24 05:00:0016,278,81016,001,2S8,4SE00
2017-09-24 04:00:0016,677,51016,101,6E4,9NE-10
2017-09-24 03:00:0017,476,91016,403,0NE5,8NE00
2017-09-24 02:00:0018,075,01016,503,3NE8,7E-10
2017-09-24 01:00:0018,376,91016,402,6NE8,9NE-10
2017-09-24 00:00:0018,677,41016,102,4NE12,7N-10